Observation data for Mertzon on 05/26/2019      Previous  Date  Next       Current Mesonet Observations  Soil Data  Daily Summary Page  Observations in Plain Language
KME1 260500Z 15007KT 23/19 A2997 RMK A01 T02320188  RH  076%=      5-min Rain = 0
KME1 260501Z 15008KT 23/19 A2997 RMK A01 T02320189  RH  077%=      5-min Rain = 0
KME1 260502Z 15009KT 23/19 A2997 RMK A01 T02320189  RH  077%=      5-min Rain = 0
KME1 260503Z 15008KT 23/19 A2997 RMK A01 T02320189  RH  077%=      5-min Rain = 0
KME1 260504Z 15008KT 23/19 A2997 RMK A01 T02320189  RH  077%=      5-min Rain = 0
KME1 260505Z 15007KT 23/19 A2997 RMK A01 T02320189  RH  077%=      5-min Rain = 0
KME1 260506Z 15008KT 23/19 A2997 RMK A01 T02330189  RH  077%=      5-min Rain = 0
KME1 260507Z 15007KT 23/19 A2997 RMK A01 T02320190  RH  077%=      5-min Rain = 0
KME1 260508Z 15009KT 23/19 A2997 RMK A01 T02320190  RH  077%=      5-min Rain = 0
KME1 260509Z 16009G14KT 23/19 A2997 RMK A01 T02320190  RH  077%=      5-min Rain = 0
KME1 260510Z 15009KT 23/19 A2997 RMK A01 T02330191  RH  077%=      5-min Rain = 0
KME1 260511Z 15007KT 23/19 A2997 RMK A01 T02330191  RH  077%=      5-min Rain = 0
KME1 260512Z 15009KT 23/19 A2997 RMK A01 T02330191  RH  077%=      5-min Rain = 0
KME1 260513Z 15009KT 23/19 A2997 RMK A01 T02330192  RH  078%=      5-min Rain = 0
KME1 260514Z 15009KT 23/19 A2997 RMK A01 T02330192  RH  078%=      5-min Rain = 0
KME1 260515Z 15010KT 23/19 A2997 RMK A01 T02330192  RH  078%=      5-min Rain = 0
KME1 260516Z 15011KT 23/19 A2997 RMK A01 T02340192  RH  077%=      5-min Rain = 0
KME1 260517Z 15011KT 24/19 A2997 RMK A01 T02350192  RH  077%=      5-min Rain = 0
KME1 260518Z 15010KT 24/19 A2997 RMK A01 T02360193  RH  077%=      5-min Rain = 0
KME1 260519Z 15010KT 24/19 A2997 RMK A01 T02360193  RH  077%=      5-min Rain = 0
KME1 260520Z 15012KT 24/19 A2997 RMK A01 T02360193  RH  077%=      5-min Rain = 0
KME1 260521Z 15013G18KT 24/19 A2997 RMK A01 T02360194  RH  077%=      5-min Rain = 0
KME1 260522Z 16011KT 24/19 A2997 RMK A01 T02370194  RH  077%=      5-min Rain = 0
KME1 260523Z 16012KT 24/19 A2997 RMK A01 T02370194  RH  077%=      5-min Rain = 0
KME1 260524Z 16014KT 24/20 A2997 RMK A01 T02380195  RH  077%=      5-min Rain = 0
KME1 260525Z 15013KT 24/20 A2997 RMK A01 T02390195  RH  077%=      5-min Rain = 0
KME1 260526Z 15013KT 24/20 A2997 RMK A01 T02390195  RH  076%=      5-min Rain = 0
KME1 260527Z 15009KT 24/20 A2997 RMK A01 T02390195  RH  076%=      5-min Rain = 0
KME1 260528Z 16012KT 24/20 A2997 RMK A01 T02390195  RH  077%=      5-min Rain = 0
KME1 260529Z 16012KT 24/20 A2997 RMK A01 T02380195  RH  077%=      5-min Rain = 0
KME1 260530Z 16011G19KT 24/20 A2997 RMK A01 T02380195  RH  077%=      5-min Rain = 0
KME1 260531Z 16014G20KT 24/20 A2997 RMK A01 T02380196  RH  077%=      5-min Rain = 0
KME1 260532Z 16013KT 24/20 A2997 RMK A01 T02380195  RH  077%=      5-min Rain = 0
KME1 260533Z 16012KT 24/20 A2997 RMK A01 T02380195  RH  077%=      5-min Rain = 0
KME1 260534Z 16009KT 24/20 A2997 RMK A01 T02380196  RH  077%=      5-min Rain = 0
KME1 260535Z 15009KT 24/20 A2997 RMK A01 T02380196  RH  077%=      5-min Rain = 0
KME1 260536Z 15010KT 24/20 A2997 RMK A01 T02370196  RH  078%=      5-min Rain = 0
KME1 260537Z 15008KT 24/20 A2997 RMK A01 T02360196  RH  078%=      5-min Rain = 0
KME1 260538Z 15007KT 24/20 A2997 RMK A01 T02360196  RH  079%=      5-min Rain = 0
KME1 260539Z 15009KT 24/20 A2997 RMK A01 T02350197  RH  079%=      5-min Rain = 0
KME1 260540Z 16006KT 23/20 A2997 RMK A01 T02340197  RH  079%=      5-min Rain = 0
KME1 260541Z 15007KT 23/20 A2997 RMK A01 T02340197  RH  080%=      5-min Rain = 0
KME1 260542Z 15006KT 23/20 A2997 RMK A01 T02330197  RH  080%=      5-min Rain = 0
KME1 260543Z 15007KT 23/20 A2997 RMK A01 T02330197  RH  080%=      5-min Rain = 0
KME1 260544Z 15007KT 23/20 A2997 RMK A01 T02330197  RH  080%=      5-min Rain = 0
KME1 260545Z 15006KT 23/20 A2997 RMK A01 T02330197  RH  080%=      5-min Rain = 0
KME1 260546Z 14007KT 23/20 A2997 RMK A01 T02320197  RH  081%=      5-min Rain = 0
KME1 260547Z 14008KT 23/20 A2996 RMK A01 T02320197  RH  081%=      5-min Rain = 0
KME1 260548Z 14009KT 23/20 A2996 RMK A01 T02320197  RH  080%=      5-min Rain = 0
KME1 260549Z 15009KT 23/20 A2996 RMK A01 T02330197  RH  080%=      5-min Rain = 0
KME1 260550Z 15008KT 23/20 A2996 RMK A01 T02340197  RH  080%=      5-min Rain = 0
KME1 260551Z 15009KT 23/20 A2996 RMK A01 T02330197  RH  080%=      5-min Rain = 0
KME1 260552Z 15010KT 23/20 A2996 RMK A01 T02340197  RH  080%=      5-min Rain = 0
KME1 260553Z 15010KT 23/20 A2996 RMK A01 T02330197  RH  080%=      5-min Rain = 0
KME1 260554Z 16007KT 23/20 A2996 RMK A01 T02330197  RH  080%=      5-min Rain = 0
KME1 260555Z 16008KT 23/20 A2996 RMK A01 T02330198  RH  080%=      5-min Rain = 0
KME1 260556Z 16008KT 23/20 A2996 RMK A01 T02330198  RH  081%=      5-min Rain = 0
KME1 260557Z 16013KT 23/20 A2996 RMK A01 T02320198  RH  081%=      5-min Rain = 0
KME1 260558Z 16009KT 23/20 A2996 RMK A01 T02330198  RH  081%=      5-min Rain = 0
KME1 260559Z 16009KT 23/20 A2996 RMK A01 T02330197  RH  080%=      5-min Rain = 0
KME1 260600Z 15012KT 23/20 A2996 RMK A01 T02330198  RH  080%=      5-min Rain = 0
KME1 260601Z 16012G17KT 23/20 A2996 RMK A01 T02330198  RH  080%=      5-min Rain = 0
KME1 260602Z 15010KT 23/20 A2996 RMK A01 T02340198  RH  080%=      5-min Rain = 0
KME1 260603Z 16008G14KT 24/20 A2996 RMK A01 T02350198  RH  080%=      5-min Rain = 0
KME1 260604Z 16010G15KT 23/20 A2996 RMK A01 T02340198  RH  080%=      5-min Rain = 0
KME1 260605Z 15013KT 24/20 A2996 RMK A01 T02350198  RH  080%=      5-min Rain = 0
KME1 260606Z 16011G16KT 23/20 A2996 RMK A01 T02340198  RH  080%=      5-min Rain = 0
KME1 260607Z 16012KT 23/20 A2996 RMK A01 T02340198  RH  080%=      5-min Rain = 0
KME1 260608Z 15014KT 23/20 A2996 RMK A01 T02340198  RH  080%=      5-min Rain = 0
KME1 260609Z 16012KT 23/20 A2996 RMK A01 T02340198  RH  080%=      5-min Rain = 0
KME1 260610Z 16011KT 23/20 A2996 RMK A01 T02340198  RH  080%=      5-min Rain = 0
KME1 260611Z 16010G17KT 24/20 A2996 RMK A01 T02350198  RH  080%=      5-min Rain = 0
KME1 260612Z 16012KT 23/20 A2996 RMK A01 T02340198  RH  080%=      5-min Rain = 0
KME1 260613Z 16013KT 23/20 A2996 RMK A01 T02340198  RH  080%=      5-min Rain = 0
KME1 260614Z 16011G16KT 23/20 A2996 RMK A01 T02340198  RH  080%=      5-min Rain = 0
KME1 260615Z 16008KT 23/20 A2996 RMK A01 T02340198  RH  081%=      5-min Rain = 0
KME1 260616Z 16009KT 23/20 A2996 RMK A01 T02330199  RH  081%=      5-min Rain = 0
KME1 260617Z 16009KT 23/20 A2996 RMK A01 T02320199  RH  081%=      5-min Rain = 0
KME1 260618Z 15011G17KT 23/20 A2996 RMK A01 T02320198  RH  081%=      5-min Rain = 0
KME1 260619Z 16012KT 23/20 A2996 RMK A01 T02320198  RH  081%=      5-min Rain = 0
KME1 260620Z 15013KT 23/20 A2996 RMK A01 T02330198  RH  081%=      5-min Rain = 0
KME1 260621Z 16008KT 23/20 A2995 RMK A01 T02330198  RH  081%=      5-min Rain = 0
KME1 260622Z 16012KT 23/20 A2995 RMK A01 T02330199  RH  081%=      5-min Rain = 0
KME1 260623Z 15010KT 23/20 A2996 RMK A01 T02330199  RH  081%=      5-min Rain = 0
KME1 260624Z 16009KT 23/20 A2995 RMK A01 T02320199  RH  081%=      5-min Rain = 0
KME1 260625Z 16008KT 23/20 A2995 RMK A01 T02320199  RH  082%=      5-min Rain = 0
KME1 260626Z 15010KT 23/20 A2995 RMK A01 T02310199  RH  082%=      5-min Rain = 0
KME1 260627Z 16010KT 23/20 A2995 RMK A01 T02300199  RH  082%=      5-min Rain = 0
KME1 260628Z 16010KT 23/20 A2995 RMK A01 T02300199  RH  083%=      5-min Rain = 0
KME1 260629Z 15010KT 23/20 A2995 RMK A01 T02300199  RH  082%=      5-min Rain = 0
KME1 260630Z 16011KT 23/20 A2995 RMK A01 T02310199  RH  082%=      5-min Rain = 0
KME1 260631Z 15010KT 23/20 A2995 RMK A01 T02310199  RH  082%=      5-min Rain = 0
KME1 260632Z 16010G15KT 23/20 A2995 RMK A01 T02300199  RH  083%=      5-min Rain = 0
KME1 260633Z 15012KT 23/20 A2995 RMK A01 T02300199  RH  083%=      5-min Rain = 0
KME1 260634Z 15010KT 23/20 A2995 RMK A01 T02300199  RH  083%=      5-min Rain = 0
KME1 260635Z 15010KT 23/20 A2995 RMK A01 T02300199  RH  083%=      5-min Rain = 0
KME1 260636Z 15009KT 23/20 A2995 RMK A01 T02290199  RH  083%=      5-min Rain = 0
KME1 260637Z 15011KT 23/20 A2995 RMK A01 T02290199  RH  083%=      5-min Rain = 0
KME1 260638Z 15011G17KT 23/20 A2995 RMK A01 T02290199  RH  083%=      5-min Rain = 0
KME1 260639Z 16012KT 23/20 A2995 RMK A01 T02290199  RH  083%=      5-min Rain = 0
KME1 260640Z 16013KT 23/20 A2995 RMK A01 T02290198  RH  083%=      5-min Rain = 0
KME1 260641Z 15010KT 23/20 A2995 RMK A01 T02300199  RH  083%=      5-min Rain = 0
KME1 260642Z 16012KT 23/20 A2995 RMK A01 T02290199  RH  083%=      5-min Rain = 0
KME1 260643Z 16012G17KT 23/20 A2995 RMK A01 T02290199  RH  083%=      5-min Rain = 0
KME1 260644Z 15011KT 23/20 A2995 RMK A01 T02290199  RH  083%=      5-min Rain = 0
KME1 260645Z 15011KT 23/20 A2995 RMK A01 T02290199  RH  083%=      5-min Rain = 0
KME1 260646Z 16010KT 23/20 A2995 RMK A01 T02280199  RH  084%=      5-min Rain = 0
KME1 260647Z 16012KT 23/20 A2995 RMK A01 T02280199  RH  084%=      5-min Rain = 0
KME1 260648Z 16010KT 23/20 A2995 RMK A01 T02280199  RH  084%=      5-min Rain = 0
KME1 260649Z 16010KT 23/20 A2995 RMK A01 T02280199  RH  084%=      5-min Rain = 0
KME1 260650Z 15013KT 23/20 A2995 RMK A01 T02280199  RH  084%=      5-min Rain = 0
KME1 260651Z 15011KT 23/20 A2995 RMK A01 T02280199  RH  084%=      5-min Rain = 0
KME1 260652Z 15010G15KT 23/20 A2995 RMK A01 T02270199  RH  084%=      5-min Rain = 0
KME1 260653Z 16011G16KT 23/20 A2995 RMK A01 T02270199  RH  084%=      5-min Rain = 0
KME1 260654Z 16010KT 23/20 A2995 RMK A01 T02270199  RH  084%=      5-min Rain = 0
KME1 260655Z 16008KT 23/20 A2995 RMK A01 T02270199  RH  084%=      5-min Rain = 0
KME1 260656Z 15009KT 23/20 A2995 RMK A01 T02270199  RH  084%=      5-min Rain = 0
KME1 260657Z 16011KT 23/20 A2995 RMK A01 T02260199  RH  084%=      5-min Rain = 0
KME1 260658Z 16012KT 23/20 A2995 RMK A01 T02260199  RH  084%=      5-min Rain = 0
KME1 260659Z 16010KT 23/20 A2995 RMK A01 T02260199  RH  084%=      5-min Rain = 0
KME1 260700Z 15010KT 23/20 A2995 RMK A01 T02260199  RH  084%=      5-min Rain = 0
KME1 260701Z 15011KT 23/20 A2995 RMK A01 T02270199  RH  084%=      5-min Rain = 0
KME1 260702Z 16009G14KT 23/20 A2995 RMK A01 T02260199  RH  084%=      5-min Rain = 0
KME1 260703Z 16008KT 23/20 A2995 RMK A01 T02260199  RH  085%=      5-min Rain = 0
KME1 260704Z 16009G14KT 23/20 A2995 RMK A01 T02260199  RH  085%=      5-min Rain = 0
KME1 260705Z 16011KT 23/20 A2995 RMK A01 T02250199  RH  085%=      5-min Rain = 0
KME1 260706Z 16010KT 23/20 A2995 RMK A01 T02250199  RH  085%=      5-min Rain = 0
KME1 260707Z 16010KT 23/20 A2995 RMK A01 T02250199  RH  085%=      5-min Rain = 0
KME1 260708Z 16012KT 23/20 A2995 RMK A01 T02250198  RH  085%=      5-min Rain = 0
KME1 260709Z 17010KT 23/20 A2995 RMK A01 T02260199  RH  085%=      5-min Rain = 0
KME1 260710Z 15008KT 23/20 A2995 RMK A01 T02260199  RH  085%=      5-min Rain = 0
KME1 260711Z 15009KT 23/20 A2995 RMK A01 T02250199  RH  085%=      5-min Rain = 0
KME1 260712Z 16008KT 23/20 A2995 RMK A01 T02250199  RH  085%=      5-min Rain = 0
KME1 260713Z 16012KT 22/20 A2995 RMK A01 T02240199  RH  085%=      5-min Rain = 0
KME1 260714Z 16012KT 22/20 A2995 RMK A01 T02240198  RH  085%=      5-min Rain = 0
KME1 260715Z 17009KT 23/20 A2995 RMK A01 T02250198  RH  085%=      5-min Rain = 0
KME1 260716Z 15008KT 22/20 A2995 RMK A01 T02240199  RH  085%=      5-min Rain = 0
KME1 260717Z 16008KT 22/20 A2995 RMK A01 T02240198  RH  086%=      5-min Rain = 0
KME1 260718Z 15009KT 22/20 A2995 RMK A01 T02230198  RH  086%=      5-min Rain = 0
KME1 260719Z 15007KT 22/20 A2995 RMK A01 T02230198  RH  086%=      5-min Rain = 0
KME1 260720Z 16009KT 22/20 A2995 RMK A01 T02230198  RH  086%=      5-min Rain = 0
KME1 260721Z 16008KT 22/20 A2995 RMK A01 T02240198  RH  086%=      5-min Rain = 0
KME1 260722Z 16008KT 22/20 A2995 RMK A01 T02230198  RH  086%=      5-min Rain = 0
KME1 260723Z 16008KT 22/20 A2995 RMK A01 T02220198  RH  086%=      5-min Rain = 0
KME1 260724Z 15009KT 22/20 A2995 RMK A01 T02220198  RH  086%=      5-min Rain = 0
KME1 260725Z 15006KT 22/20 A2995 RMK A01 T02220198  RH  086%=      5-min Rain = 0
KME1 260726Z 16007KT 22/20 A2995 RMK A01 T02220198  RH  086%=      5-min Rain = 0
KME1 260727Z 15010KT 22/20 A2995 RMK A01 T02220198  RH  086%=      5-min Rain = 0
KME1 260728Z 16006KT 22/20 A2995 RMK A01 T02220198  RH  086%=      5-min Rain = 0
KME1 260729Z 16006KT 22/20 A2995 RMK A01 T02220198  RH  086%=      5-min Rain = 0
KME1 260730Z 15005KT 22/20 A2995 RMK A01 T02220198  RH  087%=      5-min Rain = 0
KME1 260731Z 15007KT 22/20 A2995 RMK A01 T02210198  RH  087%=      5-min Rain = 0
KME1 260732Z 16008G14KT 22/20 A2995 RMK A01 T02200198  RH  087%=      5-min Rain = 0
KME1 260733Z 15008KT 22/20 A2995 RMK A01 T02200199  RH  088%=      5-min Rain = 0
KME1 260734Z 17009KT 22/20 A2995 RMK A01 T02200198  RH  088%=      5-min Rain = 0
KME1 260735Z 15006KT 22/20 A2995 RMK A01 T02200197  RH  087%=      5-min Rain = 0
KME1 260736Z 16008KT 22/20 A2995 RMK A01 T02210197  RH  087%=      5-min Rain = 0
KME1 260737Z 14007KT 22/20 A2995 RMK A01 T02210196  RH  086%=      5-min Rain = 0
KME1 260738Z 15008KT 22/20 A2995 RMK A01 T02210196  RH  086%=      5-min Rain = 0
KME1 260739Z 15009KT 22/20 A2995 RMK A01 T02210196  RH  086%=      5-min Rain = 0
KME1 260740Z 16008G13KT 22/20 A2995 RMK A01 T02210196  RH  086%=      5-min Rain = 0
KME1 260741Z 15010KT 22/20 A2995 RMK A01 T02200196  RH  086%=      5-min Rain = 0
KME1 260742Z 17010KT 22/20 A2995 RMK A01 T02200196  RH  086%=      5-min Rain = 0
KME1 260743Z 16009KT 22/20 A2995 RMK A01 T02200196  RH  086%=      5-min Rain = 0
KME1 260744Z 16009KT 22/20 A2995 RMK A01 T02200195  RH  086%=      5-min Rain = 0
KME1 260745Z 16008KT 22/20 A2995 RMK A01 T02200196  RH  086%=      5-min Rain = 0
KME1 260746Z 16008KT 22/20 A2995 RMK A01 T02190196  RH  086%=      5-min Rain = 0
KME1 260747Z 15008KT 22/20 A2995 RMK A01 T02190196  RH  086%=      5-min Rain = 0
KME1 260748Z 15010KT 22/20 A2995 RMK A01 T02190195  RH  086%=      5-min Rain = 0
KME1 260749Z 16009KT 22/20 A2995 RMK A01 T02190195  RH  086%=      5-min Rain = 0
KME1 260750Z 16009G14KT 22/20 A2995 RMK A01 T02190195  RH  086%=      5-min Rain = 0
KME1 260751Z 16011KT 22/19 A2995 RMK A01 T02190194  RH  085%=      5-min Rain = 0
KME1 260752Z 16010KT 22/19 A2995 RMK A01 T02200194  RH  085%=      5-min Rain = 0
KME1 260753Z 16009KT 22/19 A2995 RMK A01 T02200194  RH  085%=      5-min Rain = 0
KME1 260754Z 16010KT 22/19 A2995 RMK A01 T02190194  RH  086%=      5-min Rain = 0
KME1 260755Z 16009KT 22/19 A2995 RMK A01 T02190194  RH  086%=      5-min Rain = 0
KME1 260756Z 17012KT 22/19 A2995 RMK A01 T02190193  RH  086%=      5-min Rain = 0
KME1 260757Z 15011KT 22/19 A2995 RMK A01 T02190193  RH  085%=      5-min Rain = 0
KME1 260758Z 16010KT 22/19 A2995 RMK A01 T02190192  RH  085%=      5-min Rain = 0
KME1 260759Z 16009KT 22/19 A2995 RMK A01 T02200193  RH  085%=      5-min Rain = 0
KME1 260800Z 16011KT 22/19 A2995 RMK A01 T02190192  RH  085%=      5-min Rain = 0
KME1 260801Z 16009KT 22/19 A2995 RMK A01 T02190192  RH  085%=      5-min Rain = 0
KME1 260802Z 16009KT 22/19 A2995 RMK A01 T02190192  RH  085%=      5-min Rain = 0
KME1 260803Z 15009KT 22/19 A2995 RMK A01 T02180192  RH  085%=      5-min Rain = 0
KME1 260804Z 15009KT 22/19 A2995 RMK A01 T02180192  RH  085%=      5-min Rain = 0
KME1 260805Z 16011KT 22/19 A2995 RMK A01 T02180192  RH  085%=      5-min Rain = 0
KME1 260806Z 16010KT 22/19 A2995 RMK A01 T02180191  RH  085%=      5-min Rain = 0
KME1 260807Z 16008KT 22/19 A2995 RMK A01 T02180191  RH  085%=      5-min Rain = 0
KME1 260808Z 15008KT 22/19 A2995 RMK A01 T02180192  RH  085%=      5-min Rain = 0
KME1 260809Z 15007KT 22/19 A2995 RMK A01 T02170192  RH  085%=      5-min Rain = 0
KME1 260810Z 15010KT 22/19 A2995 RMK A01 T02170192  RH  086%=      5-min Rain = 0
KME1 260811Z 15009KT 22/19 A2995 RMK A01 T02160192  RH  086%=      5-min Rain = 0
KME1 260812Z 16009KT 22/19 A2995 RMK A01 T02160192  RH  086%=      5-min Rain = 0
KME1 260813Z 15009KT 22/19 A2995 RMK A01 T02160192  RH  086%=      5-min Rain = 0
KME1 260814Z 16009KT 22/19 A2995 RMK A01 T02150192  RH  087%=      5-min Rain = 0
KME1 260815Z 16007KT 22/19 A2995 RMK A01 T02150192  RH  086%=      5-min Rain = 0
KME1 260816Z 17010KT 22/19 A2995 RMK A01 T02150192  RH  086%=      5-min Rain = 0
KME1 260817Z 16011KT 22/19 A2995 RMK A01 T02150191  RH  086%=      5-min Rain = 0
KME1 260818Z 15011KT 22/19 A2995 RMK A01 T02160191  RH  086%=      5-min Rain = 0
KME1 260819Z 16009KT 22/19 A2995 RMK A01 T02160190  RH  085%=      5-min Rain = 0
KME1 260820Z 16009KT 22/19 A2995 RMK A01 T02160191  RH  086%=      5-min Rain = 0
KME1 260821Z 17010KT 22/19 A2995 RMK A01 T02160191  RH  086%=      5-min Rain = 0
KME1 260822Z 17011KT 22/19 A2995 RMK A01 T02150190  RH  086%=      5-min Rain = 0
KME1 260823Z 16011KT 22/19 A2995 RMK A01 T02150190  RH  085%=      5-min Rain = 0
KME1 260824Z 16010KT 22/19 A2995 RMK A01 T02150189  RH  085%=      5-min Rain = 0
KME1 260825Z 17012KT 22/19 A2995 RMK A01 T02150189  RH  085%=      5-min Rain = 0
KME1 260826Z 17011KT 22/19 A2995 RMK A01 T02150188  RH  085%=      5-min Rain = 0
KME1 260827Z 16009KT 22/19 A2995 RMK A01 T02150188  RH  085%=      5-min Rain = 0
KME1 260828Z 16010KT 22/19 A2995 RMK A01 T02150189  RH  085%=      5-min Rain = 0
KME1 260829Z 17010G15KT 22/19 A2995 RMK A01 T02150189  RH  085%=      5-min Rain = 0
KME1 260830Z 16012G19KT 21/19 A2995 RMK A01 T02140187  RH  085%=      5-min Rain = 0
KME1 260831Z 16010KT 22/19 A2995 RMK A01 T02150187  RH  084%=      5-min Rain = 0
KME1 260832Z 16008KT 21/19 A2995 RMK A01 T02140187  RH  084%=      5-min Rain = 0
KME1 260833Z 17008KT 21/19 A2995 RMK A01 T02140187  RH  084%=      5-min Rain = 0
KME1 260834Z 17011KT 21/19 A2995 RMK A01 T02140187  RH  084%=      5-min Rain = 0
KME1 260835Z 16009KT 21/19 A2995 RMK A01 T02140186  RH  084%=      5-min Rain = 0
KME1 260836Z 16009KT 21/19 A2995 RMK A01 T02140186  RH  084%=      5-min Rain = 0
KME1 260837Z 16012G17KT 21/19 A2995 RMK A01 T02140186  RH  084%=      5-min Rain = 0
KME1 260838Z 16011KT 21/19 A2995 RMK A01 T02140186  RH  084%=      5-min Rain = 0
KME1 260839Z 16011KT 21/19 A2995 RMK A01 T02130186  RH  084%=      5-min Rain = 0
KME1 260840Z 17013KT 21/19 A2995 RMK A01 T02130185  RH  084%=      5-min Rain = 0
KME1 260841Z 17010KT 21/19 A2995 RMK A01 T02140185  RH  084%=      5-min Rain = 0
KME1 260842Z 16009KT 21/19 A2995 RMK A01 T02130185  RH  084%=      5-min Rain = 0
KME1 260843Z 16011KT 21/19 A2995 RMK A01 T02130185  RH  084%=      5-min Rain = 0
KME1 260844Z 17011KT 21/18 A2995 RMK A01 T02130184  RH  084%=      5-min Rain = 0
KME1 260845Z 16011KT 21/18 A2995 RMK A01 T02130184  RH  084%=      5-min Rain = 0
KME1 260846Z 16012KT 21/18 A2995 RMK A01 T02130183  RH  083%=      5-min Rain = 0
KME1 260847Z 16011KT 21/18 A2995 RMK A01 T02130183  RH  083%=      5-min Rain = 0
KME1 260848Z 17011KT 21/18 A2995 RMK A01 T02130183  RH  083%=      5-min Rain = 0
KME1 260849Z 16009KT 21/18 A2996 RMK A01 T02130183  RH  083%=      5-min Rain = 0
KME1 260850Z 16011KT 21/18 A2995 RMK A01 T02130183  RH  083%=      5-min Rain = 0
KME1 260851Z 16010KT 21/18 A2995 RMK A01 T02120183  RH  083%=      5-min Rain = 0
KME1 260852Z 16008KT 21/18 A2996 RMK A01 T02120183  RH  084%=      5-min Rain = 0
KME1 260853Z 16010KT 21/18 A2996 RMK A01 T02120183  RH  084%=      5-min Rain = 0
KME1 260854Z 16012KT 21/18 A2996 RMK A01 T02110183  RH  084%=      5-min Rain = 0
KME1 260855Z 17010KT 21/18 A2996 RMK A01 T02110182  RH  084%=      5-min Rain = 0
KME1 260856Z 16010KT 21/18 A2995 RMK A01 T02110183  RH  084%=      5-min Rain = 0
KME1 260857Z 17011KT 21/18 A2995 RMK A01 T02110182  RH  084%=      5-min Rain = 0
KME1 260858Z 16013KT 21/18 A2995 RMK A01 T02110181  RH  083%=      5-min Rain = 0
KME1 260859Z 16010KT 21/18 A2995 RMK A01 T02110181  RH  083%=      5-min Rain = 0
KME1 260900Z 17007KT 21/18 A2996 RMK A01 T02110181  RH  083%=      5-min Rain = 0
KME1 260901Z 16014G21KT 21/18 A2995 RMK A01 T02110182  RH  083%=      5-min Rain = 0
KME1 260902Z 16013KT 21/18 A2996 RMK A01 T02110181  RH  083%=      5-min Rain = 0
KME1 260903Z 17011KT 21/18 A2996 RMK A01 T02110180  RH  083%=      5-min Rain = 0
KME1 260904Z 16008G13KT 21/18 A2996 RMK A01 T02110181  RH  083%=      5-min Rain = 0
KME1 260905Z 16010KT 21/18 A2996 RMK A01 T02100181  RH  083%=      5-min Rain = 0
KME1 260906Z 15011KT 21/18 A2996 RMK A01 T02100180  RH  083%=      5-min Rain = 0
KME1 260907Z 16011KT 21/18 A2996 RMK A01 T02110180  RH  083%=      5-min Rain = 0
KME1 260908Z 16010KT 21/18 A2996 RMK A01 T02100181  RH  083%=      5-min Rain = 0
KME1 260909Z 16009KT 21/18 A2996 RMK A01 T02100180  RH  083%=      5-min Rain = 0
KME1 260910Z 16008KT 21/18 A2996 RMK A01 T02100180  RH  083%=      5-min Rain = 0
KME1 260911Z 16008KT 21/18 A2996 RMK A01 T02100181  RH  083%=      5-min Rain = 0
KME1 260912Z 16010KT 21/18 A2996 RMK A01 T02090180  RH  084%=      5-min Rain = 0
KME1 260913Z 17010KT 21/18 A2996 RMK A01 T02090180  RH  083%=      5-min Rain = 0
KME1 260914Z 16013KT 21/18 A2996 RMK A01 T02090180  RH  083%=      5-min Rain = 0
KME1 260915Z 16012KT 21/18 A2996 RMK A01 T02090179  RH  083%=      5-min Rain = 0
KME1 260916Z 16008KT 21/18 A2996 RMK A01 T02090179  RH  083%=      5-min Rain = 0
KME1 260917Z 16007KT 21/18 A2996 RMK A01 T02090179  RH  083%=      5-min Rain = 0
KME1 260918Z 17012KT 21/18 A2996 RMK A01 T02090180  RH  083%=      5-min Rain = 0
KME1 260919Z 17010KT 21/18 A2996 RMK A01 T02090180  RH  083%=      5-min Rain = 0
KME1 260920Z 16008KT 21/18 A2996 RMK A01 T02090179  RH  083%=      5-min Rain = 0
KME1 260921Z 17010KT 21/18 A2996 RMK A01 T02090179  RH  083%=      5-min Rain = 0
KME1 260922Z 15010KT 21/18 A2996 RMK A01 T02080179  RH  083%=      5-min Rain = 0
KME1 260923Z 16010KT 21/18 A2996 RMK A01 T02080180  RH  084%=      5-min Rain = 0
KME1 260924Z 17011KT 21/18 A2996 RMK A01 T02080179  RH  084%=      5-min Rain = 0
KME1 260925Z 16008KT 21/18 A2996 RMK A01 T02080179  RH  083%=      5-min Rain = 0
KME1 260926Z 15010KT 21/18 A2996 RMK A01 T02080179  RH  084%=      5-min Rain = 0
KME1 260927Z 16011KT 21/18 A2996 RMK A01 T02080179  RH  083%=      5-min Rain = 0
KME1 260928Z 16012KT 21/18 A2996 RMK A01 T02080179  RH  083%=      5-min Rain = 0
KME1 260929Z 16012KT 21/18 A2996 RMK A01 T02080178  RH  083%=      5-min Rain = 0
KME1 260930Z 16009KT 21/18 A2996 RMK A01 T02090179  RH  083%=      5-min Rain = 0
KME1 260931Z 16010KT 21/18 A2996 RMK A01 T02090179  RH  083%=      5-min Rain = 0
KME1 260932Z 16009KT 21/18 A2996 RMK A01 T02090180  RH  083%=      5-min Rain = 0
KME1 260933Z 15010KT 21/18 A2996 RMK A01 T02090180  RH  083%=      5-min Rain = 0
KME1 260934Z 15011KT 21/18 A2996 RMK A01 T02090180  RH  083%=      5-min Rain = 0
KME1 260935Z 16012KT 21/18 A2996 RMK A01 T02090179  RH  083%=      5-min Rain = 0
KME1 260936Z 16010KT 21/18 A2996 RMK A01 T02090179  RH  083%=      5-min Rain = 0
KME1 260937Z 16010KT 21/18 A2996 RMK A01 T02090180  RH  083%=      5-min Rain = 0
KME1 260938Z 15009KT 21/18 A2996 RMK A01 T02090180  RH  084%=      5-min Rain = 0
KME1 260939Z 15011KT 21/18 A2996 RMK A01 T02090180  RH  083%=      5-min Rain = 0
KME1 260940Z 16013G18KT 21/18 A2996 RMK A01 T02090180  RH  083%=      5-min Rain = 0
KME1 260941Z 16012G17KT 21/18 A2996 RMK A01 T02090180  RH  083%=      5-min Rain = 0
KME1 260942Z 15012KT 21/18 A2997 RMK A01 T02090180  RH  083%=      5-min Rain = 0
KME1 260943Z 15012KT 21/18 A2997 RMK A01 T02100180  RH  083%=      5-min Rain = 0
KME1 260944Z 16011KT 21/18 A2997 RMK A01 T02100180  RH  083%=      5-min Rain = 0
KME1 260945Z 16012KT 21/18 A2997 RMK A01 T02100180  RH  083%=      5-min Rain = 0
KME1 260946Z 15009KT 21/18 A2997 RMK A01 T02100180  RH  083%=      5-min Rain = 0
KME1 260947Z 16013G18KT 21/18 A2996 RMK A01 T02100180  RH  083%=      5-min Rain = 0
KME1 260948Z 15011KT 21/18 A2996 RMK A01 T02100180  RH  083%=      5-min Rain = 0
KME1 260949Z 17012KT 21/18 A2996 RMK A01 T02100180  RH  083%=      5-min Rain = 0
KME1 260950Z 17010KT 21/18 A2996 RMK A01 T02100181  RH  083%=      5-min Rain = 0
KME1 260951Z 17009KT 21/18 A2997 RMK A01 T02100181  RH  084%=      5-min Rain = 0
KME1 260952Z 16010G16KT 21/18 A2997 RMK A01 T02100181  RH  084%=      5-min Rain = 0
KME1 260953Z 16011KT 21/18 A2996 RMK A01 T02100181  RH  084%=      5-min Rain = 0
KME1 260954Z 16011KT 21/18 A2996 RMK A01 T02100181  RH  083%=      5-min Rain = 0
KME1 260955Z 16010KT 21/18 A2997 RMK A01 T02100181  RH  083%=      5-min Rain = 0
KME1 260956Z 15009KT 21/18 A2997 RMK A01 T02110181  RH  083%=      5-min Rain = 0
KME1 260957Z 15009KT 21/18 A2997 RMK A01 T02100182  RH  084%=      5-min Rain = 0
KME1 260958Z 17009KT 21/18 A2997 RMK A01 T02110182  RH  084%=      5-min Rain = 0
KME1 260959Z 16012KT 21/18 A2997 RMK A01 T02110182  RH  084%=      5-min Rain = 0
KME1 261000Z 16009KT 21/18 A2996 RMK A01 T02100182  RH  084%=      5-min Rain = 0
KME1 261001Z 15010KT 21/18 A2997 RMK A01 T02100182  RH  084%=      5-min Rain = 0
KME1 261002Z 15013KT 21/18 A2996 RMK A01 T02110182  RH  084%=      5-min Rain = 0
KME1 261003Z 16009KT 21/18 A2996 RMK A01 T02110182  RH  084%=      5-min Rain = 0
KME1 261004Z 15011KT 21/18 A2996 RMK A01 T02110182  RH  083%=      5-min Rain = 0
KME1 261005Z 15008KT 21/18 A2996 RMK A01 T02110182  RH  084%=      5-min Rain = 0
KME1 261006Z 16010G15KT 21/18 A2996 RMK A01 T02110183  RH  084%=      5-min Rain = 0
KME1 261007Z 15011KT 21/18 A2996 RMK A01 T02110183  RH  084%=      5-min Rain = 0
KME1 261008Z 15009KT 21/18 A2996 RMK A01 T02100183  RH  084%=      5-min Rain = 0
KME1 261009Z 16008KT 21/18 A2996 RMK A01 T02100183  RH  084%=      5-min Rain = 0
KME1 261010Z 16008KT 21/18 A2996 RMK A01 T02100184  RH  085%=      5-min Rain = 0
KME1 261011Z 15008KT 21/18 A2996 RMK A01 T02100184  RH  085%=      5-min Rain = 0
KME1 261012Z 16010KT 21/18 A2996 RMK A01 T02090184  RH  085%=      5-min Rain = 0
KME1 261013Z 16008KT 21/18 A2996 RMK A01 T02090184  RH  085%=      5-min Rain = 0
KME1 261014Z 15009KT 21/18 A2996 RMK A01 T02090184  RH  085%=      5-min Rain = 0
KME1 261015Z 15009KT 21/18 A2996 RMK A01 T02090183  RH  085%=      5-min Rain = 0
KME1 261016Z 15008KT 21/18 A2996 RMK A01 T02090184  RH  086%=      5-min Rain = 0
KME1 261017Z 15009KT 21/18 A2996 RMK A01 T02090184  RH  086%=      5-min Rain = 0
KME1 261018Z 16012KT 21/18 A2996 RMK A01 T02090184  RH  086%=      5-min Rain = 0
KME1 261019Z 16010KT 21/19 A2996 RMK A01 T02090185  RH  086%=      5-min Rain = 0
KME1 261020Z 15010KT 21/19 A2997 RMK A01 T02080185  RH  086%=      5-min Rain = 0
KME1 261021Z 16010KT 21/19 A2996 RMK A01 T02090185  RH  086%=      5-min Rain = 0
KME1 261022Z 16009KT 21/19 A2996 RMK A01 T02090185  RH  086%=      5-min Rain = 0
KME1 261023Z 16012KT 21/19 A2996 RMK A01 T02090185  RH  086%=      5-min Rain = 0
KME1 261024Z 16013KT 21/19 A2996 RMK A01 T02090185  RH  086%=      5-min Rain = 0
KME1 261025Z 16012KT 21/19 A2997 RMK A01 T02090185  RH  086%=      5-min Rain = 0
KME1 261026Z 17009KT 21/19 A2997 RMK A01 T02100186  RH  086%=      5-min Rain = 0
KME1 261027Z 16011KT 21/19 A2997 RMK A01 T02100186  RH  086%=      5-min Rain = 0
KME1 261028Z 16011KT 21/19 A2997 RMK A01 T02100186  RH  086%=      5-min Rain = 0
KME1 261029Z 16008KT 21/19 A2997 RMK A01 T02100186  RH  086%=      5-min Rain = 0
KME1 261030Z 16009KT 21/19 A2997 RMK A01 T02110186  RH  086%=      5-min Rain = 0
KME1 261031Z 16010KT 21/19 A2997 RMK A01 T02100186  RH  086%=      5-min Rain = 0
KME1 261032Z 16009KT 21/19 A2997 RMK A01 T02100186  RH  086%=      5-min Rain = 0
KME1 261033Z 17012KT 21/19 A2997 RMK A01 T02110186  RH  086%=      5-min Rain = 0
KME1 261034Z 15010KT 21/19 A2997 RMK A01 T02110186  RH  086%=      5-min Rain = 0
KME1 261035Z 15010KT 21/19 A2997 RMK A01 T02110186  RH  086%=      5-min Rain = 0
KME1 261036Z 16008KT 21/19 A2997 RMK A01 T02110187  RH  086%=      5-min Rain = 0
KME1 261037Z 15010KT 21/19 A2997 RMK A01 T02110187  RH  086%=      5-min Rain = 0
KME1 261038Z 15010KT 21/19 A2997 RMK A01 T02110186  RH  086%=      5-min Rain = 0
KME1 261039Z 16010KT 21/19 A2997 RMK A01 T02110187  RH  086%=      5-min Rain = 0
KME1 261040Z 16010KT 21/19 A2997 RMK A01 T02110187  RH  086%=      5-min Rain = 0
KME1 261041Z 16011KT 21/19 A2997 RMK A01 T02110186  RH  086%=      5-min Rain = 0
KME1 261042Z 16009KT 21/19 A2997 RMK A01 T02110186  RH  086%=      5-min Rain = 0
KME1 261043Z 16007KT 21/19 A2997 RMK A01 T02110187  RH  086%=      5-min Rain = 0
KME1 261044Z 16006KT 21/19 A2997 RMK A01 T02110188  RH  087%=      5-min Rain = 0
KME1 261045Z 16006KT 21/19 A2997 RMK A01 T02100188  RH  087%=      5-min Rain = 0
KME1 261046Z 16007KT 21/19 A2997 RMK A01 T02100188  RH  087%=      5-min Rain = 0
KME1 261047Z 16007KT 21/19 A2997 RMK A01 T02100188  RH  087%=      5-min Rain = 0
KME1 261048Z 16009KT 21/19 A2997 RMK A01 T02100188  RH  087%=      5-min Rain = 0
KME1 261049Z 15009G14KT 21/19 A2997 RMK A01 T02100188  RH  087%=      5-min Rain = 0
KME1 261050Z 15008KT 21/19 A2997 RMK A01 T02100187  RH  087%=      5-min Rain = 0
KME1 261051Z 16007KT 21/19 A2997 RMK A01 T02100188  RH  087%=      5-min Rain = 0
KME1 261052Z 16007KT 21/19 A2997 RMK A01 T02100189  RH  088%=      5-min Rain = 0
KME1 261053Z 16009KT 21/19 A2997 RMK A01 T02090189  RH  088%=      5-min Rain = 0
KME1 261054Z 17008KT 21/19 A2997 RMK A01 T02090188  RH  088%=      5-min Rain = 0
KME1 261055Z 16010KT 21/19 A2997 RMK A01 T02090189  RH  088%=      5-min Rain = 0
KME1 261056Z 17011KT 21/19 A2997 RMK A01 T02090189  RH  088%=      5-min Rain = 0
KME1 261057Z 16009G14KT 21/19 A2997 RMK A01 T02090188  RH  088%=      5-min Rain = 0
KME1 261058Z 15009KT 21/19 A2997 RMK A01 T02090188  RH  088%=      5-min Rain = 0
KME1 261059Z 16012KT 21/19 A2997 RMK A01 T02090188  RH  088%=      5-min Rain = 0
KME1 261100Z 16010KT 21/19 A2997 RMK A01 T02090188  RH  088%=      5-min Rain = 0
KME1 261101Z 16008KT 21/19 A2997 RMK A01 T02090188  RH  088%=      5-min Rain = 0
KME1 261102Z 16008KT 21/19 A2997 RMK A01 T02090189  RH  088%=      5-min Rain = 0
KME1 261103Z 15008KT 21/19 A2997 RMK A01 T02080189  RH  089%=      5-min Rain = 0
KME1 261104Z 16008KT 21/19 A2997 RMK A01 T02080190  RH  089%=      5-min Rain = 0
KME1 261105Z 15009KT 21/19 A2997 RMK A01 T02080190  RH  089%=      5-min Rain = 0
KME1 261106Z 14010KT 21/19 A2997 RMK A01 T02080190  RH  090%=      5-min Rain = 0
KME1 261107Z 15010KT 21/19 A2997 RMK A01 T02070190  RH  090%=      5-min Rain = 0
KME1 261108Z 15010KT 21/19 A2997 RMK A01 T02070190  RH  090%=      5-min Rain = 0
KME1 261109Z 15007KT 21/19 A2997 RMK A01 T02070190  RH  090%=      5-min Rain = 0
KME1 261110Z 15006KT 21/19 A2997 RMK A01 T02080190  RH  090%=      5-min Rain = 0
KME1 261111Z 16007KT 21/19 A2998 RMK A01 T02070190  RH  090%=      5-min Rain = 0
KME1 261112Z 16007KT 21/19 A2998 RMK A01 T02070190  RH  090%=      5-min Rain = 0
KME1 261113Z 15010KT 21/19 A2998 RMK A01 T02070190  RH  090%=      5-min Rain = 0
KME1 261114Z 15008KT 21/19 A2998 RMK A01 T02070190  RH  090%=      5-min Rain = 0
KME1 261115Z 15009KT 21/19 A2998 RMK A01 T02070190  RH  090%=      5-min Rain = 0
KME1 261116Z 15007KT 21/19 A2998 RMK A01 T02070190  RH  090%=      5-min Rain = 0
KME1 261117Z 16009KT 21/19 A2998 RMK A01 T02070190  RH  090%=      5-min Rain = 0
KME1 261118Z 16009KT 21/19 A2998 RMK A01 T02070189  RH  090%=      5-min Rain = 0
KME1 261119Z 15006KT 21/19 A2998 RMK A01 T02080190  RH  090%=      5-min Rain = 0
KME1 261120Z 15007KT 21/19 A2998 RMK A01 T02080190  RH  090%=      5-min Rain = 0
KME1 261121Z 16007KT 21/19 A2998 RMK A01 T02080190  RH  090%=      5-min Rain = 0
KME1 261122Z 15008KT 21/19 A2998 RMK A01 T02080190  RH  090%=      5-min Rain = 0
KME1 261123Z 15008KT 21/19 A2998 RMK A01 T02080190  RH  090%=      5-min Rain = 0
KME1 261124Z 17009KT 21/19 A2998 RMK A01 T02080190  RH  090%=      5-min Rain = 0
KME1 261125Z 15009KT 21/19 A2998 RMK A01 T02080190  RH  090%=      5-min Rain = 0
KME1 261126Z 14007KT 21/19 A2998 RMK A01 T02080190  RH  090%=      5-min Rain = 0
KME1 261127Z 16008KT 21/19 A2998 RMK A01 T02080190  RH  090%=      5-min Rain = 0
KME1 261128Z 15009KT 21/19 A2998 RMK A01 T02080190  RH  090%=      5-min Rain = 0
KME1 261129Z 15006KT 21/19 A2999 RMK A01 T02080190  RH  089%=      5-min Rain = 0
KME1 261130Z 15007KT 21/19 A2999 RMK A01 T02080190  RH  090%=      5-min Rain = 0
KME1 261131Z 15007KT 21/19 A2999 RMK A01 T02080191  RH  090%=      5-min Rain = 0
KME1 261132Z 16009KT 21/19 A2999 RMK A01 T02070190  RH  090%=      5-min Rain = 0
KME1 261133Z 15009KT 21/19 A2999 RMK A01 T02070190  RH  090%=      5-min Rain = 0
KME1 261134Z 16007KT 21/19 A2999 RMK A01 T02070189  RH  089%=      5-min Rain = 0
KME1 261135Z 15007KT 21/19 A2999 RMK A01 T02080190  RH  089%=      5-min Rain = 0
KME1 261136Z 16008KT 21/19 A2999 RMK A01 T02080191  RH  090%=      5-min Rain = 0
KME1 261137Z 16009KT 21/19 A2999 RMK A01 T02080191  RH  090%=      5-min Rain = 0
KME1 261138Z 15011KT 21/19 A2999 RMK A01 T02080191  RH  090%=      5-min Rain = 0
KME1 261139Z 17009KT 21/19 A2999 RMK A01 T02080189  RH  089%=      5-min Rain = 0
KME1 261140Z 16006KT 21/19 A2999 RMK A01 T02080189  RH  089%=      5-min Rain = 0
KME1 261141Z 15007KT 21/19 A2999 RMK A01 T02080189  RH  089%=      5-min Rain = 0
KME1 261142Z 16007KT 21/19 A2999 RMK A01 T02080190  RH  089%=      5-min Rain = 0
KME1 261143Z 16006KT 21/19 A2999 RMK A01 T02080190  RH  089%=      5-min Rain = 0
KME1 261144Z 16006KT 21/19 A30 RMK A01 T02080191  RH  090%=      5-min Rain = 0
KME1 261145Z 15007KT 21/19 A30 RMK A01 T02080191  RH  090%=      5-min Rain = 0
KME1 261146Z 15008KT 21/19 A30 RMK A01 T02080190  RH  089%=      5-min Rain = 0
KME1 261147Z 15009KT 21/19 A30 RMK A01 T02080189  RH  089%=      5-min Rain = 0
KME1 261148Z 15008KT 21/19 A30 RMK A01 T02080189  RH  089%=      5-min Rain = 0
KME1 261149Z 15008KT 21/19 A30 RMK A01 T02080189  RH  089%=      5-min Rain = 0
KME1 261150Z 16008KT 21/19 A30 RMK A01 T02080188  RH  088%=      5-min Rain = 0
KME1 261151Z 15007KT 21/19 A30 RMK A01 T02090189  RH  088%=      5-min Rain = 0
KME1 261152Z 16009KT 21/19 A30 RMK A01 T02090189  RH  089%=      5-min Rain = 0
KME1 261153Z 16009KT 21/19 A30 RMK A01 T02080189  RH  088%=      5-min Rain = 0
KME1 261154Z 15010KT 21/19 A30 RMK A01 T02090188  RH  088%=      5-min Rain = 0
KME1 261155Z 16010G15KT 21/19 A30 RMK A01 T02090188  RH  088%=      5-min Rain = 0
KME1 261156Z 16009KT 21/19 A30 RMK A01 T02090188  RH  087%=      5-min Rain = 0
KME1 261157Z 15009KT 21/19 A30 RMK A01 T02090188  RH  088%=      5-min Rain = 0
KME1 261158Z 16008KT 21/19 A30 RMK A01 T02090188  RH  088%=      5-min Rain = 0
KME1 261159Z 16008KT 21/19 A30 RMK A01 T02090188  RH  087%=      5-min Rain = 0
KME1 261200Z 17013KT 21/19 A30 RMK A01 T02090186  RH  087%=      5-min Rain = 0
KME1 261201Z 18013KT 21/19 A30 RMK A01 T02100186  RH  086%=      5-min Rain = 0
KME1 261202Z 17011KT 21/19 A30 RMK A01 T02100186  RH  086%=      5-min Rain = 0
KME1 261203Z 17010KT 21/19 A30 RMK A01 T02100185  RH  086%=      5-min Rain = 0
KME1 261204Z 16008KT 21/19 A30 RMK A01 T02090185  RH  086%=      5-min Rain = 0
KME1 261205Z 16012G17KT 21/19 A30 RMK A01 T02090185  RH  086%=      5-min Rain = 0
KME1 261206Z 16010KT 21/19 A30 RMK A01 T02100185  RH  085%=      5-min Rain = 0
KME1 261207Z 16006KT 21/19 A30 RMK A01 T02100186  RH  086%=      5-min Rain = 0
KME1 261208Z 15009KT 21/19 A30 RMK A01 T02100186  RH  086%=      5-min Rain = 0
KME1 261209Z 16013KT 21/19 A30 RMK A01 T02100185  RH  086%=      5-min Rain = 0
KME1 261210Z 16010KT 21/18 A30 RMK A01 T02100184  RH  085%=      5-min Rain = 0
KME1 261211Z 15013KT 21/18 A2999 RMK A01 T02100184  RH  085%=      5-min Rain = 0
KME1 261212Z 16010KT 21/18 A2999 RMK A01 T02100184  RH  085%=      5-min Rain = 0
KME1 261213Z 16008KT 21/19 A30 RMK A01 T02100185  RH  085%=      5-min Rain = 0
KME1 261214Z 16009KT 21/19 A30 RMK A01 T02100185  RH  086%=      5-min Rain = 0
KME1 261215Z 16012KT 21/19 A30 RMK A01 T02100185  RH  085%=      5-min Rain = 0
KME1 261216Z 16010KT 21/18 A30 RMK A01 T02100183  RH  085%=      5-min Rain = 0
KME1 261217Z 16012KT 21/18 A30 RMK A01 T02100183  RH  085%=      5-min Rain = 0
KME1 261218Z 15011KT 21/18 A30 RMK A01 T02100183  RH  085%=      5-min Rain = 0
KME1 261219Z 16012KT 21/18 A30 RMK A01 T02100183  RH  084%=      5-min Rain = 0
KME1 261220Z 16012KT 21/18 A30 RMK A01 T02100183  RH  084%=      5-min Rain = 0
KME1 261221Z 17011KT 21/18 A30 RMK A01 T02100183  RH  084%=      5-min Rain = 0
KME1 261222Z 16013KT 21/18 A30 RMK A01 T02100182  RH  084%=      5-min Rain = 0
KME1 261223Z 17011KT 21/18 A30 RMK A01 T02100182  RH  084%=      5-min Rain = 0
KME1 261224Z 15010KT 21/18 A30 RMK A01 T02100182  RH  084%=      5-min Rain = 0
KME1 261225Z 16008G13KT 21/18 A30 RMK A01 T02100182  RH  084%=      5-min Rain = 0
KME1 261226Z 15011KT 21/18 A30 RMK A01 T02100183  RH  084%=      5-min Rain = 0
KME1 261227Z 16012KT 21/18 A30 RMK A01 T02100182  RH  084%=      5-min Rain = 0
KME1 261228Z 17010KT 21/18 A30 RMK A01 T02100183  RH  084%=      5-min Rain = 0
KME1 261229Z 16011KT 21/18 A30 RMK A01 T02100183  RH  084%=      5-min Rain = 0
KME1 261230Z 16010KT 21/18 A30 RMK A01 T02100183  RH  084%=      5-min Rain = 0
KME1 261231Z 16010KT 21/18 A30 RMK A01 T02100182  RH  084%=      5-min Rain = 0
KME1 261232Z 15011KT 21/18 A30 RMK A01 T02100182  RH  084%=      5-min Rain = 0
KME1 261233Z 16009KT 21/18 A30 RMK A01 T02100182  RH  084%=      5-min Rain = 0
KME1 261234Z 15009KT 21/18 A30 RMK A01 T02100183  RH  084%=      5-min Rain = 0
KME1 261235Z 16015KT 21/18 A30 RMK A01 T02100182  RH  084%=      5-min Rain = 0
KME1 261236Z 16012G17KT 21/18 A30 RMK A01 T02100182  RH  084%=      5-min Rain = 0
KME1 261237Z 16012KT 21/18 A30 RMK A01 T02100182  RH  084%=      5-min Rain = 0
KME1 261238Z 16010KT 21/18 A30 RMK A01 T02100182  RH  084%=      5-min Rain = 0
KME1 261239Z 17009KT 21/18 A30 RMK A01 T02100182  RH  084%=      5-min Rain = 0
KME1 261240Z 17008KT 21/18 A30 RMK A01 T02100183  RH  084%=      5-min Rain = 0
KME1 261241Z 17010KT 21/18 A30 RMK A01 T02100183  RH  084%=      5-min Rain = 0
KME1 261242Z 16009KT 21/18 A30 RMK A01 T02110183  RH  084%=      5-min Rain = 0
KME1 261243Z 16009KT 21/18 A30 RMK A01 T02100183  RH  084%=      5-min Rain = 0
KME1 261244Z 16009KT 21/18 A30 RMK A01 T02100184  RH  085%=      5-min Rain = 0
KME1 261245Z 16010KT 21/18 A30 RMK A01 T02100183  RH  085%=      5-min Rain = 0
KME1 261246Z 16010KT 21/18 A30 RMK A01 T02100183  RH  084%=      5-min Rain = 0
KME1 261247Z 16011KT 21/18 A30 RMK A01 T02100182  RH  084%=      5-min Rain = 0
KME1 261248Z 17010KT 21/18 A30 RMK A01 T02110182  RH  084%=      5-min Rain = 0
KME1 261249Z 17008KT 21/18 A3001 RMK A01 T02110183  RH  084%=      5-min Rain = 0
KME1 261250Z 17011KT 21/18 A3001 RMK A01 T02110183  RH  084%=      5-min Rain = 0
KME1 261251Z 16008KT 21/18 A3001 RMK A01 T02110183  RH  084%=      5-min Rain = 0
KME1 261252Z 17010KT 21/18 A3001 RMK A01 T02110184  RH  084%=      5-min Rain = 0
KME1 261253Z 17014G19KT 21/18 A3001 RMK A01 T02110183  RH  084%=      5-min Rain = 0
KME1 261254Z 16013KT 21/18 A3001 RMK A01 T02110182  RH  084%=      5-min Rain = 0
KME1 261255Z 17011KT 21/18 A3001 RMK A01 T02110183  RH  084%=      5-min Rain = 0
KME1 261256Z 17010KT 21/18 A3001 RMK A01 T02110182  RH  084%=      5-min Rain = 0
KME1 261257Z 17007KT 21/18 A3001 RMK A01 T02110183  RH  084%=      5-min Rain = 0
KME1 261258Z 18007KT 21/19 A3001 RMK A01 T02110185  RH  085%=      5-min Rain = 0
KME1 261259Z 17009KT 21/19 A3001 RMK A01 T02110185  RH  085%=      5-min Rain = 0
KME1 261300Z 17011KT 21/18 A3001 RMK A01 T02110184  RH  085%=      5-min Rain = 0
KME1 261301Z 16010KT 21/18 A3001 RMK A01 T02110184  RH  084%=      5-min Rain = 0
KME1 261302Z 16010KT 21/18 A3001 RMK A01 T02110183  RH  084%=      5-min Rain = 0
KME1 261303Z 16009KT 21/18 A3001 RMK A01 T02110183  RH  084%=      5-min Rain = 0
KME1 261304Z 17011KT 21/18 A3001 RMK A01 T02110184  RH  084%=      5-min Rain = 0
KME1 261305Z 17011KT 21/18 A3001 RMK A01 T02110184  RH  084%=      5-min Rain = 0
KME1 261306Z 17007KT 21/18 A3001 RMK A01 T02110184  RH  084%=      5-min Rain = 0
KME1 261307Z 16008KT 21/18 A3001 RMK A01 T02110184  RH  085%=      5-min Rain = 0
KME1 261308Z 17007KT 21/18 A3001 RMK A01 T02120184  RH  084%=      5-min Rain = 0
KME1 261309Z 16009KT 21/19 A3002 RMK A01 T02120185  RH  084%=      5-min Rain = 0
KME1 261310Z 17010KT 21/18 A3002 RMK A01 T02120184  RH  084%=      5-min Rain = 0
KME1 261311Z 17010KT 21/18 A3002 RMK A01 T02120184  RH  084%=      5-min Rain = 0
KME1 261312Z 17009KT 21/18 A3002 RMK A01 T02120184  RH  084%=      5-min Rain = 0
KME1 261313Z 16009KT 21/19 A3002 RMK A01 T02120185  RH  084%=      5-min Rain = 0
KME1 261314Z 15007KT 21/18 A3002 RMK A01 T02120184  RH  084%=      5-min Rain = 0
KME1 261315Z 16007KT 21/19 A3002 RMK A01 T02120185  RH  085%=      5-min Rain = 0
KME1 261316Z 17007KT 21/19 A3002 RMK A01 T02120185  RH  084%=      5-min Rain = 0
KME1 261317Z 16008KT 21/19 A3002 RMK A01 T02120185  RH  084%=      5-min Rain = 0
KME1 261318Z 16009KT 21/18 A3002 RMK A01 T02120184  RH  084%=      5-min Rain = 0
KME1 261319Z 17010KT 21/19 A3002 RMK A01 T02130185  RH  084%=      5-min Rain = 0
KME1 261320Z 17009KT 21/18 A3002 RMK A01 T02130184  RH  084%=      5-min Rain = 0
KME1 261321Z 17007KT 21/19 A3002 RMK A01 T02130185  RH  084%=      5-min Rain = 0
KME1 261322Z 16007KT 21/19 A3002 RMK A01 T02130186  RH  085%=      5-min Rain = 0
KME1 261323Z 17009KT 21/19 A3002 RMK A01 T02130185  RH  084%=      5-min Rain = 0
KME1 261324Z 16006KT 21/19 A3002 RMK A01 T02130186  RH  084%=      5-min Rain = 0
KME1 261325Z 16007KT 21/19 A3002 RMK A01 T02130186  RH  085%=      5-min Rain = 0
KME1 261326Z 18008KT 21/19 A3003 RMK A01 T02130186  RH  085%=      5-min Rain = 0
KME1 261327Z 17010KT 21/19 A3003 RMK A01 T02130185  RH  084%=      5-min Rain = 0
KME1 261328Z 18011KT 21/18 A3003 RMK A01 T02130184  RH  084%=      5-min Rain = 0
KME1 261329Z 18009KT 21/19 A3003 RMK A01 T02130185  RH  084%=      5-min Rain = 0
KME1 261330Z 16008KT 21/19 A3003 RMK A01 T02140185  RH  084%=      5-min Rain = 0
KME1 261331Z 17007KT 21/19 A3003 RMK A01 T02140186  RH  084%=      5-min Rain = 0
KME1 261332Z 17007KT 21/19 A3003 RMK A01 T02140186  RH  084%=      5-min Rain = 0
KME1 261333Z 14009KT 21/19 A3003 RMK A01 T02140185  RH  084%=      5-min Rain = 0
KME1 261334Z 17010KT 21/19 A3003 RMK A01 T02140185  RH  084%=      5-min Rain = 0
KME1 261335Z 16009KT 21/19 A3003 RMK A01 T02140185  RH  084%=      5-min Rain = 0
KME1 261336Z 17011KT 21/19 A3003 RMK A01 T02140185  RH  083%=      5-min Rain = 0
KME1 261337Z 17011KT 21/19 A3003 RMK A01 T02140185  RH  083%=      5-min Rain = 0
KME1 261338Z 16010KT 22/19 A3003 RMK A01 T02150185  RH  083%=      5-min Rain = 0
KME1 261339Z 16009KT 22/19 A3004 RMK A01 T02150185  RH  083%=      5-min Rain = 0
KME1 261340Z 16008KT 22/19 A3004 RMK A01 T02160185  RH  083%=      5-min Rain = 0
KME1 261341Z 17005KT 22/19 A3004 RMK A01 T02160187  RH  084%=      5-min Rain = 0
KME1 261342Z 18006KT 22/19 A3004 RMK A01 T02160188  RH  084%=      5-min Rain = 0
KME1 261343Z 17006G11KT 22/19 A3004 RMK A01 T02150188  RH  084%=      5-min Rain = 0
KME1 261344Z 18010KT 22/19 A3004 RMK A01 T02150186  RH  084%=      5-min Rain = 0
KME1 261345Z 18006KT 22/19 A3004 RMK A01 T02150187  RH  084%=      5-min Rain = 0
KME1 261346Z 17006KT 22/19 A3004 RMK A01 T02150188  RH  084%=      5-min Rain = 0
KME1 261347Z 18004KT 22/19 A3004 RMK A01 T02150188  RH  085%=      5-min Rain = 0
KME1 261348Z 18006KT 22/19 A3004 RMK A01 T02150188  RH  085%=      5-min Rain = 0
KME1 261349Z 18006KT 22/19 A3004 RMK A01 T02150188  RH  084%=      5-min Rain = 0
KME1 261350Z 18006KT 22/19 A3004 RMK A01 T02150187  RH  084%=      5-min Rain = 0
KME1 261351Z 18006KT 22/19 A3004 RMK A01 T02150188  RH  084%=      5-min Rain = 0
KME1 261352Z 17005KT 22/19 A3005 RMK A01 T02150188  RH  084%=      5-min Rain = 0
KME1 261353Z 16004KT 22/19 A3005 RMK A01 T02150189  RH  085%=      5-min Rain = 0
KME1 261354Z 18005KT 22/19 A3005 RMK A01 T02150190  RH  086%=      5-min Rain = 0
KME1 261355Z 17006KT 22/19 A3005 RMK A01 T02150189  RH  085%=      5-min Rain = 0
KME1 261356Z 16007KT 22/19 A3005 RMK A01 T02150189  RH  085%=      5-min Rain = 0
KME1 261357Z 17006KT 22/19 A3005 RMK A01 T02150188  RH  084%=      5-min Rain = 0
KME1 261358Z 17008KT 22/19 A3005 RMK A01 T02150188  RH  084%=      5-min Rain = 0
KME1 261359Z 17008KT 22/19 A3005 RMK A01 T02160189  RH  085%=      5-min Rain = 0
KME1 261400Z 17007KT 22/19 A3004 RMK A01 T02160189  RH  085%=      5-min Rain = 0
KME1 261401Z 16007KT 22/19 A3004 RMK A01 T02150189  RH  085%=      5-min Rain = 0
KME1 261402Z 16008KT 22/19 A3004 RMK A01 T02160188  RH  084%=      5-min Rain = 0
KME1 261403Z 17007KT 22/19 A3004 RMK A01 T02160189  RH  084%=      5-min Rain = 0
KME1 261404Z 16008KT 22/19 A3004 RMK A01 T02160189  RH  085%=      5-min Rain = 0
KME1 261405Z 16012KT 22/19 A3004 RMK A01 T02160189  RH  085%=      5-min Rain = 0
KME1 261406Z 16011KT 22/19 A3004 RMK A01 T02160188  RH  084%=      5-min Rain = 0
KME1 261407Z 16010KT 22/19 A3004 RMK A01 T02170188  RH  084%=      5-min Rain = 0
KME1 261408Z 16009KT 22/19 A3004 RMK A01 T02170189  RH  084%=      5-min Rain = 0
KME1 261409Z 16012G17KT 22/19 A3004 RMK A01 T02170188  RH  084%=      5-min Rain = 0
KME1 261410Z 16011KT 22/19 A3004 RMK A01 T02170187  RH  083%=      5-min Rain = 0
KME1 261411Z 16012KT 22/19 A3004 RMK A01 T02180188  RH  083%=      5-min Rain = 0
KME1 261412Z 15011KT 22/19 A3004 RMK A01 T02180188  RH  083%=      5-min Rain = 0
KME1 261413Z 16009KT 22/19 A3004 RMK A01 T02180188  RH  083%=      5-min Rain = 0
KME1 261414Z 16009KT 22/19 A3004 RMK A01 T02180188  RH  083%=      5-min Rain = 0
KME1 261415Z 16010KT 22/19 A3004 RMK A01 T02180188  RH  083%=      5-min Rain = 0
KME1 261416Z 16010KT 22/19 A3004 RMK A01 T02190189  RH  083%=      5-min Rain = 0
KME1 261417Z 16010G15KT 22/19 A3004 RMK A01 T02190188  RH  083%=      5-min Rain = 0
KME1 261418Z 16009KT 22/19 A3004 RMK A01 T02190189  RH  083%=      5-min Rain = 0
KME1 261419Z 16008KT 22/19 A3004 RMK A01 T02190190  RH  084%=      5-min Rain = 0
KME1 261420Z 16011KT 22/19 A3004 RMK A01 T02190189  RH  083%=      5-min Rain = 0
KME1 261421Z 17010KT 22/19 A3004 RMK A01 T02190189  RH  083%=      5-min Rain = 0
KME1 261422Z 16011KT 22/19 A3004 RMK A01 T02190189  RH  083%=      5-min Rain = 0
KME1 261423Z 15007KT 22/19 A3004 RMK A01 T02190189  RH  083%=      5-min Rain = 0
KME1 261424Z 16007KT 22/19 A3004 RMK A01 T02190190  RH  084%=      5-min Rain = 0
KME1 261425Z 16009KT 22/19 A3004 RMK A01 T02190190  RH  084%=      5-min Rain = 0
KME1 261426Z 16009KT 22/19 A3004 RMK A01 T02190189  RH  083%=      5-min Rain = 0
KME1 261427Z 16011KT 22/19 A3005 RMK A01 T02190189  RH  083%=      5-min Rain = 0
KME1 261428Z 17011KT 22/19 A3005 RMK A01 T02190189  RH  083%=      5-min Rain = 0
KME1 261429Z 16011KT 22/19 A3005 RMK A01 T02190189  RH  083%=      5-min Rain = 0
KME1 261430Z 16011KT 22/19 A3005 RMK A01 T02190189  RH  083%=      5-min Rain = 0
KME1 261431Z 17011KT 22/19 A3005 RMK A01 T02190189  RH  083%=      5-min Rain = 0
KME1 261432Z 17010KT 22/19 A3005 RMK A01 T02190189  RH  083%=      5-min Rain = 0
KME1 261433Z 16008KT 22/19 A3005 RMK A01 T02190189  RH  083%=      5-min Rain = 0
KME1 261434Z 15008KT 22/19 A3005 RMK A01 T02190191  RH  084%=      5-min Rain = 0
KME1 261435Z 16008KT 22/19 A3005 RMK A01 T02190190  RH  084%=      5-min Rain = 0
KME1 261436Z 16007KT 22/19 A3005 RMK A01 T02190191  RH  084%=      5-min Rain = 0
KME1 261437Z 16007KT 22/19 A3005 RMK A01 T02190192  RH  084%=      5-min Rain = 0
KME1 261438Z 16008KT 22/19 A3005 RMK A01 T02190191  RH  084%=      5-min Rain = 0
KME1 261439Z 16007KT 22/19 A3005 RMK A01 T02200191  RH  084%=      5-min Rain = 0
KME1 261440Z 17006KT 22/19 A3005 RMK A01 T02200193  RH  084%=      5-min Rain = 0
KME1 261441Z 17009KT 22/19 A3005 RMK A01 T02200191  RH  084%=      5-min Rain = 0
KME1 261442Z 18007KT 22/19 A3005 RMK A01 T02200192  RH  084%=      5-min Rain = 0
KME1 261443Z 16006KT 22/19 A3005 RMK A01 T02200193  RH  085%=      5-min Rain = 0
KME1 261444Z 16007KT 22/19 A3005 RMK A01 T02200193  RH  084%=      5-min Rain = 0
KME1 261445Z 16007KT 22/19 A3005 RMK A01 T02200193  RH  085%=      5-min Rain = 0
KME1 261446Z 15008KT 22/19 A3005 RMK A01 T02210193  RH  084%=      5-min Rain = 0
KME1 261447Z 15010KT 22/19 A3005 RMK A01 T02210191  RH  083%=      5-min Rain = 0
KME1 261448Z 15008KT 22/19 A3005 RMK A01 T02210192  RH  084%=      5-min Rain = 0
KME1 261449Z 16008KT 22/19 A3005 RMK A01 T02210193  RH  084%=      5-min Rain = 0
KME1 261450Z 16008KT 22/19 A3005 RMK A01 T02210193  RH  084%=      5-min Rain = 0
KME1 261451Z 16010KT 22/19 A3005 RMK A01 T02210192  RH  084%=      5-min Rain = 0
KME1 261452Z 16011KT 22/19 A3004 RMK A01 T02210191  RH  083%=      5-min Rain = 0
KME1 261453Z 16007KT 22/19 A3004 RMK A01 T02210192  RH  083%=      5-min Rain = 0
KME1 261454Z 16010KT 22/19 A3004 RMK A01 T02220193  RH  084%=      5-min Rain = 0
KME1 261455Z 15010KT 22/19 A3004 RMK A01 T02220192  RH  083%=      5-min Rain = 0
KME1 261456Z 16009KT 22/19 A3004 RMK A01 T02220193  RH  083%=      5-min Rain = 0
KME1 261457Z 16012KT 22/19 A3004 RMK A01 T02220192  RH  083%=      5-min Rain = 0
KME1 261458Z 15010KT 22/19 A3004 RMK A01 T02220193  RH  083%=      5-min Rain = 0
KME1 261459Z 16014KT 22/19 A3004 RMK A01 T02220193  RH  083%=      5-min Rain = 0
KME1 261500Z 15011KT 22/19 A3004 RMK A01 T02230192  RH  083%=      5-min Rain = 0
KME1 261501Z 15010KT 22/19 A3004 RMK A01 T02220193  RH  083%=      5-min Rain = 0
KME1 261502Z 16009KT 22/19 A3004 RMK A01 T02230194  RH  084%=      5-min Rain = 0
KME1 261503Z 15013KT 22/19 A3004 RMK A01 T02220193  RH  084%=      5-min Rain = 0
KME1 261504Z 15009KT 22/19 A3004 RMK A01 T02230193  RH  083%=      5-min Rain = 0
KME1 261505Z 15010KT 22/20 A3004 RMK A01 T02230195  RH  084%=      5-min Rain = 0
KME1 261506Z 15014KT 22/19 A3004 RMK A01 T02230193  RH  083%=      5-min Rain = 0
KME1 261507Z 15015KT 22/19 A3003 RMK A01 T02240193  RH  083%=      5-min Rain = 0
KME1 261508Z 16010KT 22/19 A3003 RMK A01 T02240194  RH  083%=      5-min Rain = 0
KME1 261509Z 16009G14KT 23/20 A3003 RMK A01 T02250197  RH  084%=      5-min Rain = 0
KME1 261510Z 16014KT 23/20 A3003 RMK A01 T02250195  RH  083%=      5-min Rain = 0
KME1 261511Z 16013KT 23/20 A3003 RMK A01 T02260195  RH  083%=      5-min Rain = 0
KME1 261512Z 15013KT 23/19 A3003 RMK A01 T02260194  RH  082%=      5-min Rain = 0
KME1 261513Z 16008KT 23/20 A3003 RMK A01 T02260195  RH  083%=      5-min Rain = 0
KME1 261514Z 16012KT 23/20 A3003 RMK A01 T02260197  RH  084%=      5-min Rain = 0
KME1 261515Z 15011G16KT 23/20 A3004 RMK A01 T02260196  RH  083%=      5-min Rain = 0
KME1 261516Z 15013KT 23/20 A3004 RMK A01 T02260196  RH  083%=      5-min Rain = 0
KME1 261517Z 16013G18KT 23/20 A3004 RMK A01 T02260195  RH  083%=      5-min Rain = 0
KME1 261518Z 16013G19KT 23/20 A3003 RMK A01 T02260195  RH  083%=      5-min Rain = 0
KME1 261519Z 17010KT 23/20 A3003 RMK A01 T02260197  RH  084%=      5-min Rain = 0
KME1 261520Z 15013KT 23/20 A3003 RMK A01 T02260197  RH  084%=      5-min Rain = 0
KME1 261521Z 15011KT 23/20 A3003 RMK A01 T02260197  RH  084%=      5-min Rain = 0
KME1 261522Z 16009KT 23/20 A3003 RMK A01 T02260197  RH  084%=      5-min Rain = 0
KME1 261523Z 15014G19KT 23/20 A3003 RMK A01 T02270197  RH  083%=      5-min Rain = 0
KME1 261524Z 17015KT 23/20 A3003 RMK A01 T02260196  RH  083%=      5-min Rain = 0
KME1 261525Z 16014KT 23/20 A3003 RMK A01 T02270197  RH  083%=      5-min Rain = 0
KME1 261526Z 15011KT 23/20 A3003 RMK A01 T02270197  RH  084%=      5-min Rain = 0
KME1 261527Z 17014KT 23/20 A3003 RMK A01 T02270198  RH  084%=      5-min Rain = 0
KME1 261528Z 16011KT 23/20 A3003 RMK A01 T02270198  RH  084%=      5-min Rain = 0
KME1 261529Z 15015KT 23/20 A3003 RMK A01 T02270198  RH  084%=      5-min Rain = 0
KME1 261530Z 16011KT 23/20 A3003 RMK A01 T02260198  RH  084%=      5-min Rain = 0
KME1 261531Z 17013G19KT 23/20 A3003 RMK A01 T02270198  RH  084%=      5-min Rain = 0
KME1 261532Z 15010KT 23/20 A3003 RMK A01 T02270199  RH  085%=      5-min Rain = 0
KME1 261533Z 16009KT 23/20 A3003 RMK A01 T02270199  RH  085%=      5-min Rain = 0
KME1 261534Z 16008KT 23/20 A3003 RMK A01 T02270200  RH  085%=      5-min Rain = 0
KME1 261535Z 16009KT 23/20 A3004 RMK A01 T02270201  RH  085%=      5-min Rain = 0
KME1 261536Z 15011KT 23/20 A3004 RMK A01 T02270200  RH  085%=      5-min Rain = 0
KME1 261537Z 16010KT 23/20 A3004 RMK A01 T02270199  RH  085%=      5-min Rain = 0
KME1 261538Z 16011KT 23/20 A3004 RMK A01 T02260200  RH  085%=      5-min Rain = 0
KME1 261539Z 15011KT 23/20 A3003 RMK A01 T02260201  RH  086%=      5-min Rain = 0
KME1 261540Z 15011KT 23/20 A3003 RMK A01 T02260201  RH  085%=      5-min Rain = 0
KME1 261541Z 16011KT 23/20 A3003 RMK A01 T02260200  RH  085%=      5-min Rain = 0
KME1 261542Z 16012KT 23/20 A3003 RMK A01 T02260201  RH  086%=      5-min Rain = 0
KME1 261543Z 17012KT 23/20 A3003 RMK A01 T02260200  RH  085%=      5-min Rain = 0
KME1 261544Z 17012KT 23/20 A3003 RMK A01 T02270201  RH  086%=      5-min Rain = 0
KME1 261545Z 14011KT 23/20 A3003 RMK A01 T02270201  RH  085%=      5-min Rain = 0
KME1 261546Z 16010KT 23/20 A3004 RMK A01 T02280202  RH  086%=      5-min Rain = 0
KME1 261547Z 16014KT 23/20 A3004 RMK A01 T02280201  RH  085%=      5-min Rain = 0
KME1 261548Z 16013KT 23/20 A3004 RMK A01 T02280201  RH  085%=      5-min Rain = 0
KME1 261549Z 17013KT 23/20 A3004 RMK A01 T02280201  RH  085%=      5-min Rain = 0
KME1 261550Z 16012KT 23/20 A3004 RMK A01 T02280202  RH  085%=      5-min Rain = 0
KME1 261551Z 18012KT 23/20 A3004 RMK A01 T02270203  RH  086%=      5-min Rain = 0
KME1 261552Z 17010KT 23/20 A3004 RMK A01 T02270202  RH  086%=      5-min Rain = 0
KME1 261553Z 17010KT 23/20 A3004 RMK A01 T02270203  RH  087%=      5-min Rain = 0
KME1 261554Z 16010KT 23/20 A3004 RMK A01 T02260204  RH  087%=      5-min Rain = 0
KME1 261555Z 15009KT 23/20 A3004 RMK A01 T02260204  RH  087%=      5-min Rain = 0
KME1 261556Z 16010KT 23/20 A3004 RMK A01 T02260204  RH  087%=      5-min Rain = 0
KME1 261557Z 16009KT 23/20 A3003 RMK A01 T02260203  RH  087%=      5-min Rain = 0
KME1 261558Z 17011KT 23/20 A3004 RMK A01 T02260203  RH  087%=      5-min Rain = 0
KME1 261559Z 17011G16KT 23/20 A3003 RMK A01 T02260203  RH  087%=      5-min Rain = 0
KME1 261600Z 17011KT 23/20 A3004 RMK A01 T02260203  RH  087%=      5-min Rain = 0
KME1 261601Z 17010KT 23/21 A3004 RMK A01 T02260205  RH  088%=      5-min Rain = 0
KME1 261602Z 16011KT 23/20 A3004 RMK A01 T02260204  RH  087%=      5-min Rain = 0
KME1 261603Z 17010KT 23/20 A3003 RMK A01 T02260204  RH  087%=      5-min Rain = 0
KME1 261604Z 16011KT 23/20 A3003 RMK A01 T02260204  RH  087%=      5-min Rain = 0
KME1 261605Z 16013KT 23/20 A3003 RMK A01 T02260204  RH  087%=      5-min Rain = 0
KME1 261606Z 16011KT 23/20 A3003 RMK A01 T02260204  RH  087%=      5-min Rain = 0
KME1 261607Z 16011KT 23/21 A3004 RMK A01 T02260205  RH  088%=      5-min Rain = 0
KME1 261608Z 16015KT 23/20 A3004 RMK A01 T02260204  RH  087%=      5-min Rain = 0
KME1 261609Z 16013G18KT 23/20 A3004 RMK A01 T02260204  RH  087%=      5-min Rain = 0
KME1 261610Z 17010KT 23/21 A3003 RMK A01 T02270205  RH  087%=      5-min Rain = 0
KME1 261611Z 16013KT 23/21 A3003 RMK A01 T02280205  RH  087%=      5-min Rain = 0
KME1 261612Z 16013KT 23/21 A3003 RMK A01 T02280205  RH  087%=      5-min Rain = 0
KME1 261613Z 16013KT 23/21 A3004 RMK A01 T02280205  RH  087%=      5-min Rain = 0
KME1 261614Z 16013KT 23/20 A3003 RMK A01 T02280204  RH  087%=      5-min Rain = 0
KME1 261615Z 15012G18KT 23/21 A3003 RMK A01 T02280205  RH  086%=      5-min Rain = 0
KME1 261616Z 16011KT 23/21 A3003 RMK A01 T02280205  RH  086%=      5-min Rain = 0
KME1 261617Z 16011KT 23/20 A3003 RMK A01 T02280204  RH  086%=      5-min Rain = 0
KME1 261618Z 16012KT 23/20 A3003 RMK A01 T02280204  RH  086%=      5-min Rain = 0
KME1 261619Z 15014KT 23/20 A3003 RMK A01 T02280204  RH  086%=      5-min Rain = 0
KME1 261620Z 17012G17KT 23/21 A3003 RMK A01 T02290205  RH  087%=      5-min Rain = 0
KME1 261621Z 17013KT 23/21 A3003 RMK A01 T02280205  RH  086%=      5-min Rain = 0
KME1 261622Z 17016KT 23/20 A3003 RMK A01 T02280204  RH  086%=      5-min Rain = 0
KME1 261623Z 17014KT 23/20 A3003 RMK A01 T02290204  RH  086%=      5-min Rain = 0
KME1 261624Z 16013KT 23/20 A3003 RMK A01 T02290204  RH  086%=      5-min Rain = 0
KME1 261625Z 16011KT 23/21 A3003 RMK A01 T02290205  RH  086%=      5-min Rain = 0
KME1 261626Z 16011KT 23/21 A3003 RMK A01 T02300205  RH  086%=      5-min Rain = 0
KME1 261627Z 16011KT 23/21 A3003 RMK A01 T02300206  RH  086%=      5-min Rain = 0
KME1 261628Z 15012KT 23/21 A3003 RMK A01 T02310206  RH  086%=      5-min Rain = 0
KME1 261629Z 16011KT 23/21 A3003 RMK A01 T02320206  RH  085%=      5-min Rain = 0
KME1 261630Z 16011KT 23/21 A3003 RMK A01 T02330206  RH  084%=      5-min Rain = 0
KME1 261631Z 16013KT 23/21 A3003 RMK A01 T02340205  RH  084%=      5-min Rain = 0
KME1 261632Z 17013KT 24/21 A3003 RMK A01 T02350206  RH  083%=      5-min Rain = 0
KME1 261633Z 17014KT 24/20 A3003 RMK A01 T02350204  RH  083%=      5-min Rain = 0
KME1 261634Z 17011KT 24/21 A3003 RMK A01 T02350206  RH  084%=      5-min Rain = 0
KME1 261635Z 16009KT 24/21 A3003 RMK A01 T02350208  RH  085%=      5-min Rain = 0
KME1 261636Z 16009KT 24/21 A3003 RMK A01 T02350208  RH  085%=      5-min Rain = 0
KME1 261637Z 15010KT 24/21 A3003 RMK A01 T02350208  RH  085%=      5-min Rain = 0
KME1 261638Z 16010KT 24/21 A3003 RMK A01 T02350208  RH  085%=      5-min Rain = 0
KME1 261639Z 15013G18KT 24/21 A3003 RMK A01 T02350206  RH  084%=      5-min Rain = 0
KME1 261640Z 15011KT 24/20 A3003 RMK A01 T02350204  RH  083%=      5-min Rain = 0
KME1 261641Z 16009KT 24/21 A3003 RMK A01 T02350206  RH  084%=      5-min Rain = 0
KME1 261642Z 17009KT 24/21 A3003 RMK A01 T02360209  RH  085%=      5-min Rain = 0
KME1 261643Z 16013G21KT 24/21 A3003 RMK A01 T02360206  RH  083%=      5-min Rain = 0
KME1 261644Z 17013G20KT 24/21 A3003 RMK A01 T02360206  RH  083%=      5-min Rain = 0
KME1 261645Z 16014KT 24/21 A3002 RMK A01 T02370205  RH  082%=      5-min Rain = 0
KME1 261646Z 16014G19KT 24/20 A3002 RMK A01 T02370204  RH  082%=      5-min Rain = 0
KME1 261647Z 16013KT 24/20 A3002 RMK A01 T02370204  RH  082%=      5-min Rain = 0
KME1 261648Z 16012G17KT 24/20 A3002 RMK A01 T02370204  RH  082%=      5-min Rain = 0
KME1 261649Z 15014KT 24/20 A3002 RMK A01 T02380203  RH  081%=      5-min Rain = 0
KME1 261650Z 16017KT 24/20 A3002 RMK A01 T02390203  RH  080%=      5-min Rain = 0
KME1 261651Z 17012KT 24/20 A3002 RMK A01 T02400204  RH  080%=      5-min Rain = 0
KME1 261652Z 16010KT 24/21 A3002 RMK A01 T02400206  RH  081%=      5-min Rain = 0
KME1 261653Z 16013G21KT 24/21 A3002 RMK A01 T02400207  RH  082%=      5-min Rain = 0
KME1 261654Z 16016KT 24/20 A3002 RMK A01 T02400202  RH  079%=      5-min Rain = 0
KME1 261655Z 16015KT 24/20 A3002 RMK A01 T02400202  RH  079%=      5-min Rain = 0
KME1 261656Z 16014KT 24/20 A3002 RMK A01 T02400203  RH  080%=      5-min Rain = 0
KME1 261657Z 17016KT 24/20 A3002 RMK A01 T02390203  RH  080%=      5-min Rain = 0
KME1 261658Z 17015KT 24/20 A3002 RMK A01 T02390202  RH  080%=      5-min Rain = 0
KME1 261659Z 17015KT 24/20 A3003 RMK A01 T02390204  RH  081%=      5-min Rain = 0
KME1 261700Z 17013KT 24/20 A3002 RMK A01 T02390202  RH  080%=      5-min Rain = 0
KME1 261701Z 16012KT 24/20 A3002 RMK A01 T02400203  RH  080%=      5-min Rain = 0
KME1 261702Z 16011KT 24/20 A3003 RMK A01 T02410204  RH  080%=      5-min Rain = 0
KME1 261703Z 16012KT 24/20 A3002 RMK A01 T02420204  RH  080%=      5-min Rain = 0
KME1 261704Z 17010KT 24/21 A3003 RMK A01 T02420205  RH  080%=      5-min Rain = 0
KME1 261705Z 17010KT 24/21 A3003 RMK A01 T02420205  RH  080%=      5-min Rain = 0
KME1 261706Z 17008KT 24/21 A3003 RMK A01 T02420205  RH  080%=      5-min Rain = 0
KME1 261707Z 16007KT 24/21 A3002 RMK A01 T02430206  RH  080%=      5-min Rain = 0
KME1 261708Z 16013G18KT 24/21 A3002 RMK A01 T02430206  RH  080%=      5-min Rain = 0
KME1 261709Z 15012G17KT 24/20 A3002 RMK A01 T02430203  RH  078%=      5-min Rain = 0
KME1 261710Z 17015G21KT 24/20 A3002 RMK A01 T02430202  RH  078%=      5-min Rain = 0
KME1 261711Z 17018G23KT 24/20 A3002 RMK A01 T02430200  RH  077%=      5-min Rain = 0
KME1 261712Z 17017G22KT 24/20 A3002 RMK A01 T02430200  RH  077%=      5-min Rain = 0
KME1 261713Z 16018KT 24/20 A3002 RMK A01 T02430200  RH  077%=      5-min Rain = 0
KME1 261714Z 18012G18KT 24/20 A3002 RMK A01 T02430199  RH  076%=      5-min Rain = 0
KME1 261715Z 17014G21KT 24/20 A3002 RMK A01 T02430199  RH  077%=      5-min Rain = 0
KME1 261716Z 17013KT 24/20 A3002 RMK A01 T02440201  RH  077%=      5-min Rain = 0
KME1 261717Z 17011KT 24/20 A3002 RMK A01 T02440202  RH  077%=      5-min Rain = 0
KME1 261718Z 15009KT 25/21 A3002 RMK A01 T02450205  RH  078%=      5-min Rain = 0
KME1 261719Z 15011G16KT 25/21 A3002 RMK A01 T02460205  RH  078%=      5-min Rain = 0
KME1 261720Z 15011G18KT 25/20 A3002 RMK A01 T02460204  RH  077%=      5-min Rain = 0
KME1 261721Z 17014G20KT 25/20 A3002 RMK A01 T02460202  RH  076%=      5-min Rain = 0
KME1 261722Z 16016KT 25/20 A3002 RMK A01 T02460202  RH  076%=      5-min Rain = 0
KME1 261723Z 16017KT 25/20 A3002 RMK A01 T02460200  RH  076%=      5-min Rain = 0
KME1 261724Z 16014KT 25/20 A3002 RMK A01 T02450201  RH  076%=      5-min Rain = 0
KME1 261725Z 17013KT 25/20 A3002 RMK A01 T02460203  RH  077%=      5-min Rain = 0
KME1 261726Z 18010KT 25/21 A3002 RMK A01 T02470206  RH  078%=      5-min Rain = 0
KME1 261727Z 18013KT 25/20 A3002 RMK A01 T02470203  RH  077%=      5-min Rain = 0
KME1 261728Z 18015KT 25/20 A3002 RMK A01 T02470203  RH  077%=      5-min Rain = 0
KME1 261729Z 18015KT 25/20 A3002 RMK A01 T02470203  RH  076%=      5-min Rain = 0
KME1 261730Z 17012KT 25/21 A3002 RMK A01 T02470205  RH  077%=      5-min Rain = 0
KME1 261731Z 17010KT 25/21 A3002 RMK A01 T02480206  RH  077%=      5-min Rain = 0
KME1 261732Z 16010KT 25/21 A3002 RMK A01 T02490209  RH  078%=      5-min Rain = 0
KME1 261733Z 16014KT 25/21 A3002 RMK A01 T02510207  RH  077%=      5-min Rain = 0
KME1 261734Z 16015KT 25/20 A3002 RMK A01 T02520204  RH  075%=      5-min Rain = 0
KME1 261735Z 17012KT 25/21 A3002 RMK A01 T02520205  RH  075%=      5-min Rain = 0
KME1 261736Z 17014KT 25/21 A3002 RMK A01 T02520205  RH  075%=      5-min Rain = 0
KME1 261737Z 17014KT 25/20 A3002 RMK A01 T02510203  RH  075%=      5-min Rain = 0
KME1 261738Z 16012KT 25/21 A3002 RMK A01 T02510205  RH  076%=      5-min Rain = 0
KME1 261739Z 16014G20KT 25/21 A3002 RMK A01 T02500206  RH  076%=      5-min Rain = 0
KME1 261740Z 16016G21KT 25/20 A3002 RMK A01 T02500201  RH  074%=      5-min Rain = 0
KME1 261741Z 16015KT 25/20 A3002 RMK A01 T02500203  RH  075%=      5-min Rain = 0
KME1 261742Z 16015G21KT 25/20 A3002 RMK A01 T02500204  RH  075%=      5-min Rain = 0
KME1 261743Z 17016G21KT 25/21 A3002 RMK A01 T02500205  RH  076%=      5-min Rain = 0
KME1 261744Z 17014KT 25/20 A3002 RMK A01 T02500202  RH  075%=      5-min Rain = 0
KME1 261745Z 16015G20KT 25/20 A3002 RMK A01 T02500203  RH  075%=      5-min Rain = 0
KME1 261746Z 16013G19KT 25/20 A3002 RMK A01 T02500203  RH  075%=      5-min Rain = 0
KME1 261747Z 17013G18KT 25/21 A3002 RMK A01 T02520205  RH  075%=      5-min Rain = 0
KME1 261748Z 17012KT 25/21 A3002 RMK A01 T02530207  RH  075%=      5-min Rain = 0
KME1 261749Z 17016KT 25/20 A3002 RMK A01 T02540203  RH  073%=      5-min Rain = 0
KME1 261750Z 17012G17KT 26/21 A3002 RMK A01 T02550205  RH  074%=      5-min Rain = 0
KME1 261751Z 17013G21KT 26/21 A3002 RMK A01 T02560206  RH  074%=      5-min Rain = 0
KME1 261752Z 18017G23KT 26/20 A3002 RMK A01 T02560202  RH  072%=      5-min Rain = 0
KME1 261753Z 18014KT 26/20 A3002 RMK A01 T02560202  RH  072%=      5-min Rain = 0
KME1 261754Z 17015KT 26/20 A3002 RMK A01 T02560203  RH  072%=      5-min Rain = 0
KME1 261755Z 17014G19KT 26/20 A3002 RMK A01 T02570203  RH  072%=      5-min Rain = 0
KME1 261756Z 18015G20KT 26/20 A3002 RMK A01 T02580202  RH  071%=      5-min Rain = 0
KME1 261757Z 17015KT 26/20 A3001 RMK A01 T02580203  RH  072%=      5-min Rain = 0
KME1 261758Z 16012G17KT 26/20 A3002 RMK A01 T02580203  RH  072%=      5-min Rain = 0
KME1 261759Z 16011KT 26/21 A3002 RMK A01 T02590207  RH  073%=      5-min Rain = 0
KME1 261800Z 14014G19KT 26/21 A3001 RMK A01 T02620207  RH  072%=      5-min Rain = 0
KME1 261801Z 15015KT 26/21 A3002 RMK A01 T02630206  RH  071%=      5-min Rain = 0
KME1 261802Z 17016KT 26/20 A3001 RMK A01 T02630204  RH  070%=      5-min Rain = 0
KME1 261803Z 17012G17KT 26/20 A3002 RMK A01 T02620204  RH  070%=      5-min Rain = 0
KME1 261804Z 18015KT 26/20 A3002 RMK A01 T02620203  RH  070%=      5-min Rain = 0
KME1 261805Z 18014KT 26/20 A3001 RMK A01 T02600203  RH  071%=      5-min Rain = 0
KME1 261806Z 17014G19KT 26/20 A3001 RMK A01 T02590203  RH  071%=      5-min Rain = 0
KME1 261807Z 15011G18KT 26/21 A3002 RMK A01 T02580205  RH  072%=      5-min Rain = 0
KME1 261808Z 16016KT 26/20 A3002 RMK A01 T02580203  RH  072%=      5-min Rain = 0
KME1 261809Z 16014KT 26/20 A3002 RMK A01 T02580203  RH  071%=      5-min Rain = 0
KME1 261810Z 15011G16KT 26/20 A3002 RMK A01 T02580204  RH  072%=      5-min Rain = 0
KME1 261811Z 17014KT 26/21 A3002 RMK A01 T02570205  RH  073%=      5-min Rain = 0
KME1 261812Z 15013KT 26/20 A3002 RMK A01 T02570203  RH  072%=      5-min Rain = 0
KME1 261813Z 16011KT 26/21 A3002 RMK A01 T02570205  RH  073%=      5-min Rain = 0
KME1 261814Z 17014KT 26/21 A3001 RMK A01 T02570205  RH  073%=      5-min Rain = 0
KME1 261815Z 17015G20KT 26/21 A3001 RMK A01 T02590207  RH  073%=      5-min Rain = 0
KME1 261816Z 17014G19KT 26/20 A3002 RMK A01 T02600204  RH  071%=      5-min Rain = 0
KME1 261817Z 17015KT 26/21 A3001 RMK A01 T02590205  RH  072%=      5-min Rain = 0
KME1 261818Z 17015KT 26/20 A3002 RMK A01 T02590204  RH  072%=      5-min Rain = 0
KME1 261819Z 16011KT 26/20 A3002 RMK A01 T02580203  RH  072%=      5-min Rain = 0
KME1 261820Z 14011KT 26/21 A3002 RMK A01 T02580206  RH  073%=      5-min Rain = 0
KME1 261821Z 14011KT 26/21 A3002 RMK A01 T02600206  RH  072%=      5-min Rain = 0
KME1 261822Z 14011G17KT 26/21 A3002 RMK A01 T02620207  RH  072%=      5-min Rain = 0
KME1 261823Z 15013KT 26/21 A3002 RMK A01 T02630207  RH  071%=      5-min Rain = 0
KME1 261824Z 16017KT 27/21 A3001 RMK A01 T02650207  RH  070%=      5-min Rain = 0
KME1 261825Z 16015KT 27/20 A3001 RMK A01 T02660204  RH  069%=      5-min Rain = 0
KME1 261826Z 17014G19KT 27/21 A3001 RMK A01 T02660206  RH  070%=      5-min Rain = 0
KME1 261827Z 16012KT 27/21 A3001 RMK A01 T02650205  RH  070%=      5-min Rain = 0
KME1 261828Z 17016KT 26/20 A3001 RMK A01 T02640204  RH  070%=      5-min Rain = 0
KME1 261829Z 16014G19KT 26/20 A3001 RMK A01 T02640202  RH  069%=      5-min Rain = 0
KME1 261830Z 16013KT 26/20 A3001 RMK A01 T02640202  RH  069%=      5-min Rain = 0
KME1 261831Z 16014G19KT 26/20 A3001 RMK A01 T02640201  RH  068%=      5-min Rain = 0
KME1 261832Z 17013KT 26/20 A3001 RMK A01 T02630203  RH  069%=      5-min Rain = 0
KME1 261833Z 16011KT 26/20 A3001 RMK A01 T02630204  RH  070%=      5-min Rain = 0
KME1 261834Z 16014G20KT 26/21 A3001 RMK A01 T02620205  RH  071%=      5-min Rain = 0
KME1 261835Z 16016KT 26/20 A3001 RMK A01 T02610201  RH  069%=      5-min Rain = 0
KME1 261836Z 16014G19KT 26/20 A3001 RMK A01 T02600198  RH  069%=      5-min Rain = 0
KME1 261837Z 16014KT 26/20 A3001 RMK A01 T02590198  RH  069%=      5-min Rain = 0
KME1 261838Z 16014G20KT 26/20 A3001 RMK A01 T02580200  RH  070%=      5-min Rain = 0
KME1 261839Z 16016G21KT 26/20 A3001 RMK A01 T02580198  RH  070%=      5-min Rain = 0
KME1 261840Z 16013G19KT 26/20 A3001 RMK A01 T02580198  RH  070%=      5-min Rain = 0
KME1 261841Z 17016KT 26/20 A3001 RMK A01 T02580198  RH  069%=      5-min Rain = 0
KME1 261842Z 17011KT 26/20 A3001 RMK A01 T02590200  RH  070%=      5-min Rain = 0
KME1 261843Z 17009KT 26/21 A3001 RMK A01 T02610206  RH  072%=      5-min Rain = 0
KME1 261844Z 18011KT 26/21 A3001 RMK A01 T02640208  RH  071%=      5-min Rain = 0
KME1 261845Z 18012KT 27/21 A3001 RMK A01 T02660205  RH  069%=      5-min Rain = 0
KME1 261846Z 16015KT 27/21 A3001 RMK A01 T02690205  RH  068%=      5-min Rain = 0
KME1 261847Z 16010G18KT 27/21 A3001 RMK A01 T02710206  RH  067%=      5-min Rain = 0
KME1 261848Z 16014KT 27/21 A3001 RMK A01 T02740205  RH  066%=      5-min Rain = 0
KME1 261849Z 17014KT 27/21 A3001 RMK A01 T02740205  RH  066%=      5-min Rain = 0
KME1 261850Z 16011KT 27/21 A3001 RMK A01 T02730206  RH  067%=      5-min Rain = 0
KME1 261851Z 16010KT 27/21 A3001 RMK A01 T02720205  RH  067%=      5-min Rain = 0
KME1 261852Z 16011KT 27/20 A3001 RMK A01 T02710204  RH  066%=      5-min Rain = 0
KME1 261853Z 16015KT 27/20 A3001 RMK A01 T02700201  RH  066%=      5-min Rain = 0
KME1 261854Z 16013G20KT 27/20 A3001 RMK A01 T02680201  RH  067%=      5-min Rain = 0
KME1 261855Z 16014G21KT 27/20 A3001 RMK A01 T02670198  RH  066%=      5-min Rain = 0
KME1 261856Z 17012G17KT 27/20 A3001 RMK A01 T02650201  RH  068%=      5-min Rain = 0
KME1 261857Z 16015KT 27/20 A3001 RMK A01 T02650198  RH  067%=      5-min Rain = 0
KME1 261858Z 17014KT 27/20 A3001 RMK A01 T02650198  RH  067%=      5-min Rain = 0
KME1 261859Z 17012KT 27/20 A3001 RMK A01 T02650200  RH  068%=      5-min Rain = 0
KME1 261900Z 18012G19KT 27/20 A3001 RMK A01 T02650203  RH  069%=      5-min Rain = 0
KME1 261901Z 18013KT 27/20 A3001 RMK A01 T02650200  RH  068%=      5-min Rain = 0
KME1 261902Z 18015KT 27/20 A3001 RMK A01 T02650198  RH  067%=      5-min Rain = 0
KME1 261903Z 18013G18KT 27/20 A3001 RMK A01 T02650198  RH  067%=      5-min Rain = 0
KME1 261904Z 18012G17KT 26/20 A3001 RMK A01 T02640197  RH  067%=      5-min Rain = 0
KME1 261905Z 18015KT 26/20 A3001 RMK A01 T02640199  RH  067%=      5-min Rain = 0
KME1 261906Z 16015KT 26/20 A3001 RMK A01 T02640198  RH  067%=      5-min Rain = 0
KME1 261907Z 17014KT 27/20 A3001 RMK A01 T02650198  RH  067%=      5-min Rain = 0
KME1 261908Z 16014KT 27/20 A3001 RMK A01 T02650199  RH  067%=      5-min Rain = 0
KME1 261909Z 16015G20KT 27/20 A3001 RMK A01 T02650196  RH  066%=      5-min Rain = 0
KME1 261910Z 15014G19KT 27/19 A3001 RMK A01 T02650194  RH  065%=      5-min Rain = 0
KME1 261911Z 15015KT 27/20 A3001 RMK A01 T02650197  RH  066%=      5-min Rain = 0
KME1 261912Z 16013KT 27/20 A3001 RMK A01 T02650196  RH  066%=      5-min Rain = 0
KME1 261913Z 17012G17KT 27/20 A3001 RMK A01 T02650198  RH  067%=      5-min Rain = 0
KME1 261914Z 17014KT 27/20 A3001 RMK A01 T02650199  RH  067%=      5-min Rain = 0
KME1 261915Z 16012G17KT 27/20 A3001 RMK A01 T02650197  RH  066%=      5-min Rain = 0
KME1 261916Z 16011KT 27/20 A3001 RMK A01 T02650200  RH  068%=      5-min Rain = 0
KME1 261917Z 16012G17KT 27/20 A3001 RMK A01 T02650201  RH  068%=      5-min Rain = 0
KME1 261918Z 16014KT 27/20 A30 RMK A01 T02660197  RH  066%=      5-min Rain = 0
KME1 261919Z 17014KT 27/20 A30 RMK A01 T02670197  RH  065%=      5-min Rain = 0
KME1 261920Z 16011G16KT 27/20 A30 RMK A01 T02670196  RH  065%=      5-min Rain = 0
KME1 261921Z 17013KT 27/20 A30 RMK A01 T02670200  RH  067%=      5-min Rain = 0
KME1 261922Z 17013KT 27/20 A30 RMK A01 T02670198  RH  066%=      5-min Rain = 0
KME1 261923Z 17015KT 27/20 A30 RMK A01 T02680196  RH  065%=      5-min Rain = 0
KME1 261924Z 16012KT 27/20 A3001 RMK A01 T02680199  RH  066%=      5-min Rain = 0
KME1 261925Z 16012KT 27/20 A3001 RMK A01 T02690198  RH  065%=      5-min Rain = 0
KME1 261926Z 17009G16KT 27/20 A3001 RMK A01 T02690202  RH  067%=      5-min Rain = 0
KME1 261927Z 17012KT 27/20 A3001 RMK A01 T02700199  RH  065%=      5-min Rain = 0
KME1 261928Z 17011KT 27/20 A30 RMK A01 T02700198  RH  065%=      5-min Rain = 0
KME1 261929Z 18014KT 27/20 A30 RMK A01 T02700198  RH  065%=      5-min Rain = 0
KME1 261930Z 17012KT 27/20 A30 RMK A01 T02700198  RH  065%=      5-min Rain = 0
KME1 261931Z 18011KT 27/20 A30 RMK A01 T02700201  RH  066%=      5-min Rain = 0
KME1 261932Z 18014KT 27/20 A30 RMK A01 T02690200  RH  066%=      5-min Rain = 0
KME1 261933Z 18017G23KT 27/20 A30 RMK A01 T02680197  RH  065%=      5-min Rain = 0
KME1 261934Z 18019KT 27/19 A30 RMK A01 T02670193  RH  064%=      5-min Rain = 0
KME1 261935Z 17015G20KT 27/19 A30 RMK A01 T02660194  RH  064%=      5-min Rain = 0
KME1 261936Z 16013KT 27/20 A30 RMK A01 T02650197  RH  066%=      5-min Rain = 0
KME1 261937Z 15014KT 27/20 A30 RMK A01 T02650197  RH  066%=      5-min Rain = 0
KME1 261938Z 16014KT 27/19 A30 RMK A01 T02660194  RH  065%=      5-min Rain = 0
KME1 261939Z 17014G19KT 27/19 A30 RMK A01 T02670194  RH  064%=      5-min Rain = 0
KME1 261940Z 16013KT 27/20 A30 RMK A01 T02680196  RH  065%=      5-min Rain = 0
KME1 261941Z 16014KT 27/20 A30 RMK A01 T02690195  RH  064%=      5-min Rain = 0
KME1 261942Z 17012KT 27/20 A30 RMK A01 T02690197  RH  065%=      5-min Rain = 0
KME1 261943Z 17011G20KT 27/20 A30 RMK A01 T02690199  RH  065%=      5-min Rain = 0
KME1 261944Z 18016KT 27/20 A30 RMK A01 T02700196  RH  064%=      5-min Rain = 0
KME1 261945Z 18019G24KT 27/19 A30 RMK A01 T02680194  RH  064%=      5-min Rain = 0
KME1 261946Z 17018KT 27/19 A30 RMK A01 T02680191  RH  063%=      5-min Rain = 0
KME1 261947Z 16016KT 27/19 A30 RMK A01 T02680191  RH  063%=      5-min Rain = 0
KME1 261948Z 16015G22KT 27/19 A30 RMK A01 T02670193  RH  064%=      5-min Rain = 0
KME1 261949Z 16015KT 27/19 A30 RMK A01 T02680191  RH  063%=      5-min Rain = 0
KME1 261950Z 16012KT 27/19 A30 RMK A01 T02670193  RH  064%=      5-min Rain = 0
KME1 261951Z 15017KT 27/19 A30 RMK A01 T02670193  RH  064%=      5-min Rain = 0
KME1 261952Z 16015G21KT 27/19 A30 RMK A01 T02670190  RH  063%=      5-min Rain = 0
KME1 261953Z 16017KT 27/19 A30 RMK A01 T02670191  RH  063%=      5-min Rain = 0
KME1 261954Z 16016KT 27/19 A30 RMK A01 T02670188  RH  062%=      5-min Rain = 0
KME1 261955Z 16017KT 27/19 A30 RMK A01 T02670189  RH  062%=      5-min Rain = 0
KME1 261956Z 15015KT 27/19 A30 RMK A01 T02660189  RH  062%=      5-min Rain = 0
KME1 261957Z 16015KT 27/19 A30 RMK A01 T02660189  RH  063%=      5-min Rain = 0
KME1 261958Z 16012G18KT 27/19 A30 RMK A01 T02660192  RH  064%=      5-min Rain = 0
KME1 261959Z 16012G17KT 27/19 A30 RMK A01 T02660191  RH  064%=      5-min Rain = 0
KME1 262000Z 16014KT 27/19 A30 RMK A01 T02660193  RH  064%=      5-min Rain = 0
KME1 262001Z 16013KT 27/19 A30 RMK A01 T02660192  RH  064%=      5-min Rain = 0
KME1 262002Z 16014KT 27/19 A30 RMK A01 T02650192  RH  064%=      5-min Rain = 0
KME1 262003Z 16013KT 27/19 A30 RMK A01 T02650192  RH  064%=      5-min Rain = 0
KME1 262004Z 17015KT 27/19 A30 RMK A01 T02650190  RH  063%=      5-min Rain = 0
KME1 262005Z 17012KT 27/19 A30 RMK A01 T02650191  RH  064%=      5-min Rain = 0
KME1 262006Z 16010G17KT 27/19 A30 RMK A01 T02650193  RH  065%=      5-min Rain = 0
KME1 262007Z 16015G20KT 27/19 A30 RMK A01 T02650193  RH  065%=      5-min Rain = 0
KME1 262008Z 16016KT 26/19 A30 RMK A01 T02640191  RH  064%=      5-min Rain = 0
KME1 262009Z 16017KT 26/19 A30 RMK A01 T02640190  RH  064%=      5-min Rain = 0
KME1 262010Z 17013G18KT 27/19 A30 RMK A01 T02650191  RH  064%=      5-min Rain = 0
KME1 262011Z 17017G22KT 27/19 A2999 RMK A01 T02650191  RH  064%=      5-min Rain = 0
KME1 262012Z 16012G18KT 27/19 A30 RMK A01 T02650193  RH  065%=      5-min Rain = 0
KME1 262013Z 16014KT 27/19 A30 RMK A01 T02650191  RH  064%=      5-min Rain = 0
KME1 262014Z 16015G21KT 27/19 A30 RMK A01 T02650192  RH  064%=      5-min Rain = 0
KME1 262015Z 16016KT 27/19 A30 RMK A01 T02650190  RH  063%=      5-min Rain = 0
KME1 262016Z 17014KT 27/19 A30 RMK A01 T02650191  RH  063%=      5-min Rain = 0
KME1 262017Z 17014KT 27/19 A2999 RMK A01 T02650189  RH  063%=      5-min Rain = 0
KME1 262018Z 17013G19KT 27/19 A2999 RMK A01 T02650191  RH  064%=      5-min Rain = 0
KME1 262019Z 16012KT 27/19 A2999 RMK A01 T02650189  RH  063%=      5-min Rain = 0
KME1 262020Z 16013KT 27/19 A2999 RMK A01 T02650190  RH  064%=      5-min Rain = 0
KME1 262021Z 16014KT 27/19 A2999 RMK A01 T02660191  RH  063%=      5-min Rain = 0
KME1 262022Z 16012KT 27/19 A2999 RMK A01 T02670193  RH  064%=      5-min Rain = 0
KME1 262023Z 16011KT 27/20 A2999 RMK A01 T02710196  RH  064%=      5-min Rain = 0
KME1 262024Z 16012KT 28/20 A2999 RMK A01 T02750197  RH  062%=      5-min Rain = 0
KME1 262025Z 16011KT 28/20 A2999 RMK A01 T02790200  RH  062%=      5-min Rain = 0
KME1 262026Z 16011KT 28/20 A2999 RMK A01 T02810200  RH  061%=      5-min Rain = 0
KME1 262027Z 17010KT 28/20 A2999 RMK A01 T02840200  RH  060%=      5-min Rain = 0
KME1 262028Z 17010KT 29/21 A2999 RMK A01 T02850205  RH  062%=      5-min Rain = 0
KME1 262029Z 17014KT 29/20 A2999 RMK A01 T02870203  RH  061%=      5-min Rain = 0
KME1 262030Z 16017G22KT 29/20 A2999 RMK A01 T02870199  RH  059%=      5-min Rain = 0
KME1 262031Z 16015G20KT 29/20 A2999 RMK A01 T02880195  RH  057%=      5-min Rain = 0
KME1 262032Z 16016KT 29/20 A2999 RMK A01 T02870197  RH  058%=      5-min Rain = 0
KME1 262033Z 16016KT 29/19 A2999 RMK A01 T02860194  RH  058%=      5-min Rain = 0
KME1 262034Z 15014KT 29/20 A2999 RMK A01 T02860198  RH  059%=      5-min Rain = 0
KME1 262035Z 16016KT 29/20 A2999 RMK A01 T02860197  RH  059%=      5-min Rain = 0
KME1 262036Z 16012KT 29/20 A2999 RMK A01 T02860198  RH  059%=      5-min Rain = 0
KME1 262037Z 15010KT 29/20 A2998 RMK A01 T02860199  RH  059%=      5-min Rain = 0
KME1 262038Z 15011G16KT 29/20 A2998 RMK A01 T02880202  RH  060%=      5-min Rain = 0
KME1 262039Z 15012KT 29/20 A2998 RMK A01 T02880200  RH  059%=      5-min Rain = 0
KME1 262040Z 15012KT 29/20 A2998 RMK A01 T02890200  RH  058%=      5-min Rain = 0
KME1 262041Z 15012KT 29/20 A2998 RMK A01 T02900200  RH  058%=      5-min Rain = 0
KME1 262042Z 16009KT 29/20 A2998 RMK A01 T02890201  RH  059%=      5-min Rain = 0
KME1 262043Z 15012KT 29/20 A2998 RMK A01 T02890203  RH  060%=      5-min Rain = 0
KME1 262044Z 16011KT 29/20 A2998 RMK A01 T02880198  RH  058%=      5-min Rain = 0
KME1 262045Z 17010KT 29/20 A2998 RMK A01 T02880203  RH  060%=      5-min Rain = 0
KME1 262046Z 17009KT 29/21 A2998 RMK A01 T02870205  RH  061%=      5-min Rain = 0
KME1 262047Z 16014G19KT 29/21 A2998 RMK A01 T02880206  RH  061%=      5-min Rain = 0
KME1 262048Z 16017KT 29/20 A2998 RMK A01 T02880197  RH  058%=      5-min Rain = 0
KME1 262049Z 16017G22KT 29/20 A2998 RMK A01 T02870196  RH  058%=      5-min Rain = 0
KME1 262050Z 16017KT 29/19 A2998 RMK A01 T02860194  RH  058%=      5-min Rain = 0
KME1 262051Z 16014KT 29/19 A2998 RMK A01 T02850193  RH  058%=      5-min Rain = 0
KME1 262052Z 18012G17KT 28/20 A2998 RMK A01 T02840198  RH  059%=      5-min Rain = 0
KME1 262053Z 18014KT 28/20 A2998 RMK A01 T02840197  RH  059%=      5-min Rain = 0
KME1 262054Z 18018G23KT 28/20 A2998 RMK A01 T02830196  RH  059%=      5-min Rain = 0
KME1 262055Z 17016G23KT 28/20 A2998 RMK A01 T02820195  RH  059%=      5-min Rain = 0
KME1 262056Z 18018KT 28/19 A2998 RMK A01 T02820193  RH  058%=      5-min Rain = 0
KME1 262057Z 17015KT 28/19 A2998 RMK A01 T02810194  RH  059%=      5-min Rain = 0
KME1 262058Z 16013KT 28/20 A2997 RMK A01 T02810197  RH  060%=      5-min Rain = 0
KME1 262059Z 16017G23KT 28/20 A2997 RMK A01 T02830197  RH  060%=      5-min Rain = 0
KME1 262100Z 16017KT 28/19 A2997 RMK A01 T02840193  RH  058%=      5-min Rain = 0
KME1 262101Z 16017G23KT 28/19 A2997 RMK A01 T02840194  RH  058%=      5-min Rain = 0
KME1 262102Z 16017KT 28/19 A2997 RMK A01 T02840190  RH  057%=      5-min Rain = 0
KME1 262103Z 15019KT 28/19 A2997 RMK A01 T02840192  RH  057%=      5-min Rain = 0
KME1 262104Z 15018KT 28/19 A2997 RMK A01 T02840189  RH  057%=      5-min Rain = 0
KME1 262105Z 16014G19KT 28/19 A2997 RMK A01 T02840191  RH  057%=      5-min Rain = 0
KME1 262106Z 15017KT 28/19 A2997 RMK A01 T02840191  RH  057%=      5-min Rain = 0
KME1 262107Z 16018G23KT 29/19 A2997 RMK A01 T02850191  RH  057%=      5-min Rain = 0
KME1 262108Z 17016KT 29/19 A2997 RMK A01 T02850192  RH  057%=      5-min Rain = 0
KME1 262109Z 17016KT 29/19 A2997 RMK A01 T02850193  RH  057%=      5-min Rain = 0
KME1 262110Z 17017KT 29/19 A2997 RMK A01 T02850192  RH  057%=      5-min Rain = 0
KME1 262111Z 16014G20KT 28/19 A2997 RMK A01 T02840191  RH  057%=      5-min Rain = 0
KME1 262112Z 17015KT 28/20 A2997 RMK A01 T02840196  RH  059%=      5-min Rain = 0
KME1 262113Z 17013KT 28/19 A2997 RMK A01 T02840194  RH  058%=      5-min Rain = 0
KME1 262114Z 17015KT 28/19 A2997 RMK A01 T02840194  RH  058%=      5-min Rain = 0
KME1 262115Z 15015KT 28/19 A2997 RMK A01 T02840193  RH  058%=      5-min Rain = 0
KME1 262116Z 16012KT 28/20 A2997 RMK A01 T02840196  RH  059%=      5-min Rain = 0
KME1 262117Z 17013KT 28/19 A2997 RMK A01 T02840194  RH  058%=      5-min Rain = 0
KME1 262118Z 18015G21KT 28/19 A2997 RMK A01 T02830193  RH  058%=      5-min Rain = 0
KME1 262119Z 17015KT 28/19 A2997 RMK A01 T02820192  RH  058%=      5-min Rain = 0
KME1 262120Z 17013KT 28/19 A2997 RMK A01 T02820191  RH  058%=      5-min Rain = 0
KME1 262121Z 17012G17KT 28/20 A2997 RMK A01 T02830197  RH  059%=      5-min Rain = 0
KME1 262122Z 18012G17KT 28/20 A2997 RMK A01 T02840195  RH  058%=      5-min Rain = 0
KME1 262123Z 17009KT 29/20 A2998 RMK A01 T02850197  RH  059%=      5-min Rain = 0
KME1 262124Z 17008KT 29/20 A2998 RMK A01 T02860199  RH  059%=      5-min Rain = 0
KME1 262125Z 16010G16KT 29/20 A2998 RMK A01 T02870200  RH  059%=      5-min Rain = 0
KME1 262126Z 15011KT 29/20 A2998 RMK A01 T02870201  RH  060%=      5-min Rain = 0
KME1 262127Z 15015KT 29/20 A2998 RMK A01 T02870195  RH  057%=      5-min Rain = 0
KME1 262128Z 15012G17KT 29/19 A2998 RMK A01 T02860193  RH  057%=      5-min Rain = 0
KME1 262129Z 15016KT 29/20 A2998 RMK A01 T02860195  RH  058%=      5-min Rain = 0
KME1 262130Z 16011KT 29/19 A2998 RMK A01 T02860194  RH  057%=      5-min Rain = 0
KME1 262131Z 17011KT 29/20 A2998 RMK A01 T02850196  RH  059%=      5-min Rain = 0
KME1 262132Z 17014KT 28/19 A2998 RMK A01 T02840194  RH  058%=      5-min Rain = 0
KME1 262133Z 16012KT 28/20 A2998 RMK A01 T02820197  RH  060%=      5-min Rain = 0
KME1 262134Z 15014KT 28/19 A2998 RMK A01 T02820194  RH  059%=      5-min Rain = 0
KME1 262135Z 16011KT 28/20 A2998 RMK A01 T02820196  RH  059%=      5-min Rain = 0
KME1 262136Z 14012G17KT 28/19 A2998 RMK A01 T02830193  RH  058%=      5-min Rain = 0
KME1 262137Z 16017G22KT 28/19 A2998 RMK A01 T02830191  RH  057%=      5-min Rain = 0
KME1 262138Z 16015G20KT 28/19 A2998 RMK A01 T02830190  RH  057%=      5-min Rain = 0
KME1 262139Z 16016KT 28/19 A2998 RMK A01 T02830190  RH  057%=      5-min Rain = 0
KME1 262140Z 16014KT 28/19 A2998 RMK A01 T02830192  RH  058%=      5-min Rain = 0
KME1 262141Z 17013KT 28/19 A2998 RMK A01 T02820192  RH  058%=      5-min Rain = 0
KME1 262142Z 16012KT 28/19 A2998 RMK A01 T02810192  RH  059%=      5-min Rain = 0
KME1 262143Z 17011KT 28/19 A2998 RMK A01 T02800194  RH  059%=      5-min Rain = 0
KME1 262144Z 17012KT 28/20 A2998 RMK A01 T02790195  RH  060%=      5-min Rain = 0
KME1 262145Z 17012KT 28/19 A2998 RMK A01 T02790192  RH  059%=      5-min Rain = 0
KME1 262146Z 17013KT 28/19 A2998 RMK A01 T02780194  RH  060%=      5-min Rain = 0
KME1 262147Z 18015KT 28/19 A2998 RMK A01 T02780191  RH  059%=      5-min Rain = 0
KME1 262148Z 17013KT 28/19 A2998 RMK A01 T02780190  RH  059%=      5-min Rain = 0
KME1 262149Z 18010KT 28/19 A2998 RMK A01 T02780192  RH  060%=      5-min Rain = 0
KME1 262150Z 18010KT 28/20 A2998 RMK A01 T02780196  RH  061%=      5-min Rain = 0
KME1 262151Z 18010KT 28/20 A2998 RMK A01 T02770196  RH  061%=      5-min Rain = 0
KME1 262152Z 17009G14KT 28/20 A2998 RMK A01 T02760196  RH  062%=      5-min Rain = 0
KME1 262153Z 18012KT 28/19 A2998 RMK A01 T02760194  RH  061%=      5-min Rain = 0
KME1 262154Z 17013KT 28/19 A2998 RMK A01 T02760192  RH  060%=      5-min Rain = 0
KME1 262155Z 18011KT 28/19 A2998 RMK A01 T02760192  RH  060%=      5-min Rain = 0
KME1 262156Z 18010KT 28/19 A2998 RMK A01 T02760194  RH  061%=      5-min Rain = 0
KME1 262157Z 18011KT 28/19 A2998 RMK A01 T02750193  RH  061%=      5-min Rain = 0
KME1 262158Z 17010KT 27/19 A2998 RMK A01 T02740192  RH  061%=      5-min Rain = 0
KME1 262159Z 19009KT 27/19 A2998 RMK A01 T02740191  RH  061%=      5-min Rain = 0
KME1 262200Z 19010KT 27/20 A2998 RMK A01 T02740195  RH  062%=      5-min Rain = 0
KME1 262201Z 18011G16KT 27/19 A2998 RMK A01 T02730192  RH  061%=      5-min Rain = 0
KME1 262202Z 19008KT 27/19 A2998 RMK A01 T02730192  RH  061%=      5-min Rain = 0
KME1 262203Z 19011KT 27/19 A2998 RMK A01 T02730193  RH  062%=      5-min Rain = 0
KME1 262204Z 20011KT 27/19 A2998 RMK A01 T02730188  RH  060%=      5-min Rain = 0
KME1 262205Z 18011KT 27/19 A2998 RMK A01 T02740191  RH  061%=      5-min Rain = 0
KME1 262206Z 18012KT 28/19 A2998 RMK A01 T02750189  RH  060%=      5-min Rain = 0
KME1 262207Z 17010KT 27/19 A2998 RMK A01 T02740191  RH  060%=      5-min Rain = 0
KME1 262208Z 17011KT 27/19 A2997 RMK A01 T02740192  RH  061%=      5-min Rain = 0
KME1 262209Z 18012KT 27/19 A2997 RMK A01 T02740191  RH  061%=      5-min Rain = 0
KME1 262210Z 18012KT 27/19 A2997 RMK A01 T02740191  RH  060%=      5-min Rain = 0
KME1 262211Z 17009KT 27/19 A2997 RMK A01 T02740192  RH  061%=      5-min Rain = 0
KME1 262212Z 18009KT 28/20 A2997 RMK A01 T02750195  RH  062%=      5-min Rain = 0
KME1 262213Z 17008KT 27/20 A2997 RMK A01 T02740195  RH  062%=      5-min Rain = 0
KME1 262214Z 18007KT 27/20 A2997 RMK A01 T02740198  RH  063%=      5-min Rain = 0
KME1 262215Z 18008KT 27/20 A2997 RMK A01 T02740196  RH  063%=      5-min Rain = 0
KME1 262216Z 18008KT 27/20 A2997 RMK A01 T02740197  RH  063%=      5-min Rain = 0
KME1 262217Z 17013KT 27/19 A2997 RMK A01 T02740193  RH  061%=      5-min Rain = 0
KME1 262218Z 17010KT 27/19 A2997 RMK A01 T02740192  RH  061%=      5-min Rain = 0
KME1 262219Z 17013KT 27/19 A2997 RMK A01 T02740194  RH  062%=      5-min Rain = 0
KME1 262220Z 17010KT 28/19 A2997 RMK A01 T02750193  RH  061%=      5-min Rain = 0
KME1 262221Z 17008KT 27/20 A2997 RMK A01 T02740196  RH  062%=      5-min Rain = 0
KME1 262222Z 17008KT 27/20 A2997 RMK A01 T02740198  RH  063%=      5-min Rain = 0
KME1 262223Z 17008KT 27/20 A2997 RMK A01 T02740198  RH  063%=      5-min Rain = 0
KME1 262224Z 16007KT 27/20 A2997 RMK A01 T02740199  RH  064%=      5-min Rain = 0
KME1 262225Z 16007KT 27/20 A2996 RMK A01 T02740201  RH  064%=      5-min Rain = 0
KME1 262226Z 16007KT 27/20 A2997 RMK A01 T02740200  RH  064%=      5-min Rain = 0
KME1 262227Z 16009KT 28/20 A2997 RMK A01 T02750198  RH  063%=      5-min Rain = 0
KME1 262228Z 17008KT 28/20 A2996 RMK A01 T02760199  RH  063%=      5-min Rain = 0
KME1 262229Z 16009KT 28/20 A2996 RMK A01 T02760196  RH  062%=      5-min Rain = 0
KME1 262230Z 16011KT 28/20 A2996 RMK A01 T02770196  RH  062%=      5-min Rain = 0
KME1 262231Z 16009KT 28/20 A2996 RMK A01 T02770195  RH  061%=      5-min Rain = 0
KME1 262232Z 16011KT 28/19 A2996 RMK A01 T02780194  RH  060%=      5-min Rain = 0
KME1 262233Z 16009KT 28/20 A2996 RMK A01 T02780198  RH  062%=      5-min Rain = 0
KME1 262234Z 15008KT 28/20 A2996 RMK A01 T02780197  RH  061%=      5-min Rain = 0
KME1 262235Z 16006KT 28/20 A2996 RMK A01 T02780200  RH  062%=      5-min Rain = 0
KME1 262236Z 15011KT 28/20 A2996 RMK A01 T02780199  RH  062%=      5-min Rain = 0
KME1 262237Z 15009KT 28/19 A2996 RMK A01 T02780194  RH  060%=      5-min Rain = 0
KME1 262238Z 16008KT 28/20 A2996 RMK A01 T02790199  RH  062%=      5-min Rain = 0
KME1 262239Z 16010KT 28/20 A2996 RMK A01 T02790200  RH  062%=      5-min Rain = 0
KME1 262240Z 15011KT 28/20 A2996 RMK A01 T02790198  RH  061%=      5-min Rain = 0
KME1 262241Z 16011KT 28/20 A2996 RMK A01 T02790196  RH  061%=      5-min Rain = 0
KME1 262242Z 16009G14KT 28/20 A2996 RMK A01 T02790196  RH  061%=      5-min Rain = 0
KME1 262243Z 15010KT 28/20 A2996 RMK A01 T02780197  RH  061%=      5-min Rain = 0
KME1 262244Z 17009KT 28/20 A2996 RMK A01 T02780197  RH  061%=      5-min Rain = 0
KME1 262245Z 16007KT 28/20 A2996 RMK A01 T02780200  RH  062%=      5-min Rain = 0
KME1 262246Z 17010KT 28/20 A2996 RMK A01 T02770202  RH  063%=      5-min Rain = 0
KME1 262247Z 17008KT 28/20 A2996 RMK A01 T02770200  RH  063%=      5-min Rain = 0
KME1 262248Z 17006KT 28/20 A2996 RMK A01 T02760202  RH  064%=      5-min Rain = 0
KME1 262249Z 17012G17KT 28/20 A2996 RMK A01 T02760199  RH  063%=      5-min Rain = 0
KME1 262250Z 16013KT 28/19 A2996 RMK A01 T02760193  RH  060%=      5-min Rain = 0
KME1 262251Z 17010KT 28/20 A2996 RMK A01 T02770195  RH  061%=      5-min Rain = 0
KME1 262252Z 17010KT 28/20 A2996 RMK A01 T02760198  RH  062%=      5-min Rain = 0
KME1 262253Z 17010KT 28/20 A2996 RMK A01 T02760197  RH  062%=      5-min Rain = 0
KME1 262254Z 16009KT 28/20 A2996 RMK A01 T02750197  RH  062%=      5-min Rain = 0
KME1 262255Z 16011KT 28/20 A2996 RMK A01 T02750196  RH  062%=      5-min Rain = 0
KME1 262256Z 16008KT 28/20 A2996 RMK A01 T02750195  RH  062%=      5-min Rain = 0
KME1 262257Z 16007KT 28/20 A2995 RMK A01 T02750197  RH  062%=      5-min Rain = 0
KME1 262258Z 16007KT 27/20 A2995 RMK A01 T02740197  RH  063%=      5-min Rain = 0
KME1 262259Z 15007KT 27/20 A2995 RMK A01 T02730199  RH  064%=      5-min Rain = 0
KME1 262300Z 15008KT 27/20 A2995 RMK A01 T02730198  RH  064%=      5-min Rain = 0
KME1 262301Z 16009KT 27/20 A2995 RMK A01 T02720197  RH  063%=      5-min Rain = 0
KME1 262302Z 16009KT 27/20 A2995 RMK A01 T02720196  RH  063%=      5-min Rain = 0
KME1 262303Z 16013KT 27/19 A2995 RMK A01 T02720193  RH  062%=      5-min Rain = 0
KME1 262304Z 15009KT 27/19 A2995 RMK A01 T02730193  RH  062%=      5-min Rain = 0
KME1 262305Z 16009KT 27/20 A2995 RMK A01 T02730195  RH  062%=      5-min Rain = 0
KME1 262306Z 16009KT 27/20 A2995 RMK A01 T02730196  RH  063%=      5-min Rain = 0
KME1 262307Z 16007KT 27/20 A2994 RMK A01 T02720197  RH  063%=      5-min Rain = 0
KME1 262308Z 16008KT 27/20 A2994 RMK A01 T02720196  RH  063%=      5-min Rain = 0
KME1 262309Z 16008KT 27/20 A2994 RMK A01 T02710197  RH  064%=      5-min Rain = 0
KME1 262310Z 15011KT 27/19 A2994 RMK A01 T02710194  RH  063%=      5-min Rain = 0
KME1 262311Z 16009KT 27/19 A2994 RMK A01 T02710193  RH  062%=      5-min Rain = 0
KME1 262312Z 16012KT 27/19 A2994 RMK A01 T02710192  RH  062%=      5-min Rain = 0
KME1 262313Z 16011KT 27/19 A2994 RMK A01 T02710192  RH  062%=      5-min Rain = 0
KME1 262314Z 16010KT 27/19 A2994 RMK A01 T02720193  RH  062%=      5-min Rain = 0
KME1 262315Z 16010KT 27/19 A2994 RMK A01 T02720192  RH  062%=      5-min Rain = 0
KME1 262316Z 16009KT 27/19 A2994 RMK A01 T02730193  RH  062%=      5-min Rain = 0
KME1 262317Z 16007KT 27/20 A2994 RMK A01 T02730195  RH  062%=      5-min Rain = 0
KME1 262318Z 16009KT 27/20 A2994 RMK A01 T02720195  RH  063%=      5-min Rain = 0
KME1 262319Z 16010KT 27/19 A2993 RMK A01 T02710192  RH  062%=      5-min Rain = 0
KME1 262320Z 16010KT 27/19 A2993 RMK A01 T02720194  RH  062%=      5-min Rain = 0
KME1 262321Z 15007KT 27/20 A2993 RMK A01 T02720196  RH  063%=      5-min Rain = 0
KME1 262322Z 15010KT 27/19 A2993 RMK A01 T02710194  RH  063%=      5-min Rain = 0
KME1 262323Z 16008KT 27/19 A2993 RMK A01 T02710193  RH  062%=      5-min Rain = 0
KME1 262324Z 15007KT 27/20 A2993 RMK A01 T02710196  RH  063%=      5-min Rain = 0
KME1 262325Z 15007KT 27/20 A2993 RMK A01 T02710195  RH  063%=      5-min Rain = 0
KME1 262326Z 15008KT 27/20 A2993 RMK A01 T02700195  RH  063%=      5-min Rain = 0
KME1 262327Z 16010KT 27/19 A2993 RMK A01 T02700194  RH  063%=      5-min Rain = 0
KME1 262328Z 15008KT 27/19 A2993 RMK A01 T02700193  RH  063%=      5-min Rain = 0
KME1 262329Z 15008KT 27/20 A2993 RMK A01 T02700195  RH  063%=      5-min Rain = 0
KME1 262330Z 15008KT 27/19 A2993 RMK A01 T02700194  RH  063%=      5-min Rain = 0
KME1 262331Z 14008KT 27/20 A2993 RMK A01 T02700196  RH  064%=      5-min Rain = 0
KME1 262332Z 15008KT 27/20 A2992 RMK A01 T02700195  RH  063%=      5-min Rain = 0
KME1 262333Z 15008KT 27/19 A2992 RMK A01 T02700193  RH  063%=      5-min Rain = 0
KME1 262334Z 14009KT 27/19 A2992 RMK A01 T02700194  RH  063%=      5-min Rain = 0
KME1 262335Z 14010KT 27/19 A2992 RMK A01 T02710193  RH  062%=      5-min Rain = 0
KME1 262336Z 14010KT 27/19 A2992 RMK A01 T02710193  RH  062%=      5-min Rain = 0
KME1 262337Z 15012KT 27/19 A2992 RMK A01 T02710191  RH  061%=      5-min Rain = 0
KME1 262338Z 14009KT 27/19 A2992 RMK A01 T02720193  RH  062%=      5-min Rain = 0
KME1 262339Z 14009KT 27/19 A2992 RMK A01 T02720192  RH  062%=      5-min Rain = 0
KME1 262340Z 15008KT 27/19 A2992 RMK A01 T02720194  RH  062%=      5-min Rain = 0
KME1 262341Z 14011KT 27/19 A2992 RMK A01 T02720192  RH  062%=      5-min Rain = 0
KME1 262342Z 14011KT 27/19 A2992 RMK A01 T02720192  RH  062%=      5-min Rain = 0
KME1 262343Z 15009KT 27/19 A2992 RMK A01 T02720192  RH  061%=      5-min Rain = 0
KME1 262344Z 15009KT 27/19 A2992 RMK A01 T02720193  RH  062%=      5-min Rain = 0
KME1 262345Z 15008KT 27/19 A2992 RMK A01 T02720192  RH  062%=      5-min Rain = 0
KME1 262346Z 15009KT 27/19 A2993 RMK A01 T02720193  RH  062%=      5-min Rain = 0
KME1 262347Z 15009G14KT 27/19 A2993 RMK A01 T02710192  RH  062%=      5-min Rain = 0
KME1 262348Z 15009KT 27/19 A2993 RMK A01 T02720192  RH  062%=      5-min Rain = 0
KME1 262349Z 16011KT 27/19 A2993 RMK A01 T02720192  RH  062%=      5-min Rain = 0
KME1 262350Z 15010KT 27/19 A2993 RMK A01 T02720193  RH  062%=      5-min Rain = 0
KME1 262351Z 16009KT 27/19 A2993 RMK A01 T02720194  RH  062%=      5-min Rain = 0
KME1 262352Z 16012KT 27/19 A2993 RMK A01 T02720192  RH  062%=      5-min Rain = 0
KME1 262353Z 16011KT 27/19 A2992 RMK A01 T02720191  RH  061%=      5-min Rain = 0
KME1 262354Z 16009KT 27/19 A2992 RMK A01 T02730193  RH  061%=      5-min Rain = 0
KME1 262355Z 16007KT 27/19 A2992 RMK A01 T02730194  RH  062%=      5-min Rain = 0
KME1 262356Z 15011KT 27/19 A2992 RMK A01 T02720193  RH  062%=      5-min Rain = 0
KME1 262357Z 15010KT 27/19 A2992 RMK A01 T02730192  RH  061%=      5-min Rain = 0
KME1 262358Z 15012KT 27/19 A2992 RMK A01 T02730193  RH  062%=      5-min Rain = 0
KME1 262359Z 16008KT 27/19 A2992 RMK A01 T02720192  RH  061%=      5-min Rain = 0
KME1 270000Z 15008KT 27/19 A2992 RMK A01 T02720192  RH  062%=      5-min Rain = 0
KME1 270001Z 16009KT 27/19 A2992 RMK A01 T02720194  RH  062%=      5-min Rain = 0
KME1 270002Z 15009KT 27/19 A2992 RMK A01 T02710194  RH  062%=      5-min Rain = 0
KME1 270003Z 16010KT 27/19 A2992 RMK A01 T02710193  RH  062%=      5-min Rain = 0
KME1 270004Z 15008KT 27/19 A2992 RMK A01 T02710193  RH  063%=      5-min Rain = 0
KME1 270005Z 15009KT 27/19 A2992 RMK A01 T02710193  RH  062%=      5-min Rain = 0
KME1 270006Z 15007KT 27/19 A2992 RMK A01 T02710193  RH  063%=      5-min Rain = 0
KME1 270007Z 15007KT 27/19 A2992 RMK A01 T02700194  RH  063%=      5-min Rain = 0
KME1 270008Z 15007KT 27/20 A2992 RMK A01 T02700195  RH  063%=      5-min Rain = 0
KME1 270009Z 15005KT 27/19 A2992 RMK A01 T02700194  RH  063%=      5-min Rain = 0
KME1 270010Z 15006KT 27/20 A2992 RMK A01 T02700196  RH  064%=      5-min Rain = 0
KME1 270011Z 15006KT 27/20 A2992 RMK A01 T02690195  RH  064%=      5-min Rain = 0
KME1 270012Z 15006KT 27/20 A2992 RMK A01 T02690196  RH  065%=      5-min Rain = 0
KME1 270013Z 15007KT 27/20 A2992 RMK A01 T02680196  RH  065%=      5-min Rain = 0
KME1 270014Z 16006KT 27/20 A2992 RMK A01 T02670195  RH  065%=      5-min Rain = 0
KME1 270015Z 16008KT 27/20 A2992 RMK A01 T02670195  RH  064%=      5-min Rain = 0
KME1 270016Z 15012KT 27/19 A2992 RMK A01 T02670194  RH  064%=      5-min Rain = 0
KME1 270017Z 16011KT 27/19 A2992 RMK A01 T02670192  RH  063%=      5-min Rain = 0
KME1 270018Z 16010G15KT 27/19 A2992 RMK A01 T02690191  RH  062%=      5-min Rain = 0
KME1 270019Z 16009KT 27/19 A2992 RMK A01 T02690193  RH  063%=      5-min Rain = 0
KME1 270020Z 16009KT 27/19 A2992 RMK A01 T02700192  RH  062%=      5-min Rain = 0
KME1 270021Z 15009KT 27/19 A2992 RMK A01 T02700194  RH  063%=      5-min Rain = 0
KME1 270022Z 16010KT 27/19 A2992 RMK A01 T02690192  RH  063%=      5-min Rain = 0
KME1 270023Z 15009KT 27/19 A2992 RMK A01 T02690192  RH  063%=      5-min Rain = 0
KME1 270024Z 15010KT 27/19 A2992 RMK A01 T02690192  RH  063%=      5-min Rain = 0
KME1 270025Z 16009KT 27/19 A2992 RMK A01 T02690193  RH  063%=      5-min Rain = 0
KME1 270026Z 16010G15KT 27/19 A2992 RMK A01 T02680193  RH  063%=      5-min Rain = 0
KME1 270027Z 15011KT 27/19 A2992 RMK A01 T02680192  RH  063%=      5-min Rain = 0
KME1 270028Z 15010KT 27/19 A2992 RMK A01 T02680191  RH  063%=      5-min Rain = 0
KME1 270029Z 16008KT 27/19 A2992 RMK A01 T02680192  RH  063%=      5-min Rain = 0
KME1 270030Z 15008KT 27/19 A2992 RMK A01 T02680193  RH  063%=      5-min Rain = 0
KME1 270031Z 16012KT 27/19 A2992 RMK A01 T02680192  RH  063%=      5-min Rain = 0
KME1 270032Z 16012KT 27/19 A2992 RMK A01 T02680191  RH  063%=      5-min Rain = 0
KME1 270033Z 16009KT 27/19 A2992 RMK A01 T02680191  RH  063%=      5-min Rain = 0
KME1 270034Z 16011KT 27/19 A2992 RMK A01 T02680192  RH  063%=      5-min Rain = 0
KME1 270035Z 16013KT 27/19 A2992 RMK A01 T02680191  RH  063%=      5-min Rain = 0
KME1 270036Z 16013KT 27/19 A2992 RMK A01 T02680190  RH  062%=      5-min Rain = 0
KME1 270037Z 16012KT 27/19 A2992 RMK A01 T02690190  RH  062%=      5-min Rain = 0
KME1 270038Z 16011KT 27/19 A2992 RMK A01 T02690190  RH  062%=      5-min Rain = 0
KME1 270039Z 16008KT 27/19 A2992 RMK A01 T02690190  RH  062%=      5-min Rain = 0
KME1 270040Z 16009KT 27/19 A2992 RMK A01 T02690192  RH  063%=      5-min Rain = 0
KME1 270041Z 16009KT 27/19 A2992 RMK A01 T02680191  RH  062%=      5-min Rain = 0
KME1 270042Z 16010KT 27/19 A2992 RMK A01 T02680191  RH  063%=      5-min Rain = 0
KME1 270043Z 16010KT 27/19 A2992 RMK A01 T02680191  RH  063%=      5-min Rain = 0
KME1 270044Z 15010KT 27/19 A2992 RMK A01 T02670190  RH  062%=      5-min Rain = 0
KME1 270045Z 16011KT 27/19 A2992 RMK A01 T02670189  RH  062%=      5-min Rain = 0
KME1 270046Z 14010KT 27/19 A2992 RMK A01 T02680190  RH  062%=      5-min Rain = 0
KME1 270047Z 15007KT 27/19 A2991 RMK A01 T02680191  RH  063%=      5-min Rain = 0
KME1 270048Z 15010KT 27/19 A2991 RMK A01 T02670191  RH  063%=      5-min Rain = 0
KME1 270049Z 15011KT 27/19 A2991 RMK A01 T02660190  RH  063%=      5-min Rain = 0
KME1 270050Z 15010KT 27/19 A2991 RMK A01 T02670189  RH  062%=      5-min Rain = 0
KME1 270051Z 15009KT 27/19 A2991 RMK A01 T02670190  RH  063%=      5-min Rain = 0
KME1 270052Z 15010KT 27/19 A2991 RMK A01 T02670190  RH  063%=      5-min Rain = 0
KME1 270053Z 15011KT 27/19 A2991 RMK A01 T02670189  RH  062%=      5-min Rain = 0
KME1 270054Z 15009KT 27/19 A2991 RMK A01 T02670189  RH  062%=      5-min Rain = 0
KME1 270055Z 15010KT 27/19 A2991 RMK A01 T02670190  RH  062%=      5-min Rain = 0
KME1 270056Z 15010KT 27/19 A2991 RMK A01 T02670190  RH  063%=      5-min Rain = 0
KME1 270057Z 15011KT 27/19 A2991 RMK A01 T02670190  RH  063%=      5-min Rain = 0
KME1 270058Z 15012KT 27/19 A2991 RMK A01 T02670189  RH  062%=      5-min Rain = 0
KME1 270059Z 15009KT 27/19 A2991 RMK A01 T02670190  RH  063%=      5-min Rain = 0
KME1 270100Z 16013KT 27/19 A2991 RMK A01 T02670189  RH  062%=      5-min Rain = 0
KME1 270101Z 15010G15KT 27/19 A2991 RMK A01 T02670189  RH  062%=      5-min Rain = 0
KME1 270102Z 15012G17KT 27/19 A2991 RMK A01 T02670190  RH  062%=      5-min Rain = 0
KME1 270103Z 15012KT 27/19 A299 RMK A01 T02670190  RH  063%=      5-min Rain = 0
KME1 270104Z 15012KT 27/19 A299 RMK A01 T02670189  RH  062%=      5-min Rain = 0
KME1 270105Z 15012KT 27/19 A299 RMK A01 T02670189  RH  062%=      5-min Rain = 0
KME1 270106Z 15012KT 27/19 A299 RMK A01 T02670189  RH  062%=      5-min Rain = 0
KME1 270107Z 15012KT 27/19 A2989 RMK A01 T02670190  RH  062%=      5-min Rain = 0
KME1 270108Z 15013KT 27/19 A2989 RMK A01 T02670190  RH  062%=      5-min Rain = 0
KME1 270109Z 14012KT 27/19 A2989 RMK A01 T02670190  RH  063%=      5-min Rain = 0
KME1 270110Z 14015KT 27/19 A2989 RMK A01 T02670189  RH  062%=      5-min Rain = 0
KME1 270111Z 14018KT 27/19 A2989 RMK A01 T02670188  RH  062%=      5-min Rain = 0
KME1 270112Z 15016KT 27/19 A2989 RMK A01 T02680188  RH  061%=      5-min Rain = 0
KME1 270113Z 15017G24KT 27/19 A2989 RMK A01 T02680188  RH  061%=      5-min Rain = 0
KME1 270114Z 15015KT 27/19 A2988 RMK A01 T02690188  RH  061%=      5-min Rain = 0
KME1 270115Z 15015G21KT 27/19 A2988 RMK A01 T02690188  RH  061%=      5-min Rain = 0
KME1 270116Z 15013KT 27/19 A2988 RMK A01 T02690188  RH  061%=      5-min Rain = 0
KME1 270117Z 14015G21KT 27/19 A2988 RMK A01 T02690188  RH  061%=      5-min Rain = 0
KME1 270118Z 15014G19KT 27/19 A2989 RMK A01 T02690188  RH  061%=      5-min Rain = 0
KME1 270119Z 15013G18KT 27/19 A2989 RMK A01 T02690188  RH  061%=      5-min Rain = 0
KME1 270120Z 15011G16KT 27/19 A2989 RMK A01 T02690188  RH  061%=      5-min Rain = 0
KME1 270121Z 15013G18KT 27/19 A2989 RMK A01 T02680188  RH  061%=      5-min Rain = 0
KME1 270122Z 15011KT 27/19 A2989 RMK A01 T02680188  RH  061%=      5-min Rain = 0
KME1 270123Z 15012KT 27/19 A2989 RMK A01 T02680188  RH  061%=      5-min Rain = 0
KME1 270124Z 16013KT 27/19 A2989 RMK A01 T02680187  RH  061%=      5-min Rain = 0
KME1 270125Z 16011KT 27/19 A2989 RMK A01 T02680187  RH  061%=      5-min Rain = 0
KME1 270126Z 16012G18KT 27/19 A2989 RMK A01 T02680187  RH  061%=      5-min Rain = 0
KME1 270127Z 16015G20KT 27/19 A2989 RMK A01 T02680187  RH  061%=      5-min Rain = 0
KME1 270128Z 15012KT 27/19 A2989 RMK A01 T02670186  RH  061%=      5-min Rain = 0
KME1 270129Z 16012G20KT 27/19 A2989 RMK A01 T02680187  RH  061%=      5-min Rain = 0
KME1 270130Z 16013G18KT 27/19 A2989 RMK A01 T02670187  RH  061%=      5-min Rain = 0
KME1 270131Z 15011KT 27/19 A2988 RMK A01 T02670187  RH  061%=      5-min Rain = 0
KME1 270132Z 15015KT 27/19 A2989 RMK A01 T02670186  RH  061%=      5-min Rain = 0
KME1 270133Z 15015KT 27/19 A2988 RMK A01 T02670185  RH  061%=      5-min Rain = 0
KME1 270134Z 15011G16KT 27/19 A2989 RMK A01 T02680186  RH  061%=      5-min Rain = 0
KME1 270135Z 16012KT 27/19 A2989 RMK A01 T02680187  RH  061%=      5-min Rain = 0
KME1 270136Z 16010KT 27/19 A2989 RMK A01 T02670186  RH  061%=      5-min Rain = 0
KME1 270137Z 16015G22KT 27/19 A2989 RMK A01 T02660187  RH  062%=      5-min Rain = 0
KME1 270138Z 16015KT 27/19 A2989 RMK A01 T02660186  RH  061%=      5-min Rain = 0
KME1 270139Z 16014KT 27/19 A2989 RMK A01 T02660186  RH  061%=      5-min Rain = 0
KME1 270140Z 16010KT 27/19 A2989 RMK A01 T02660186  RH  061%=      5-min Rain = 0
KME1 270141Z 17010KT 27/19 A2989 RMK A01 T02660187  RH  062%=      5-min Rain = 0
KME1 270142Z 16011KT 27/19 A2989 RMK A01 T02650187  RH  062%=      5-min Rain = 0
KME1 270143Z 16013KT 27/19 A2989 RMK A01 T02650186  RH  062%=      5-min Rain = 0
KME1 270144Z 16011KT 27/19 A2989 RMK A01 T02650186  RH  062%=      5-min Rain = 0
KME1 270145Z 16012KT 27/19 A2989 RMK A01 T02650187  RH  062%=      5-min Rain = 0
KME1 270146Z 17013KT 26/19 A2989 RMK A01 T02640187  RH  062%=      5-min Rain = 0
KME1 270147Z 17010KT 26/19 A2989 RMK A01 T02640186  RH  062%=      5-min Rain = 0
KME1 270148Z 16012KT 26/19 A2989 RMK A01 T02640187  RH  062%=      5-min Rain = 0
KME1 270149Z 16012KT 26/19 A2989 RMK A01 T02640186  RH  062%=      5-min Rain = 0
KME1 270150Z 17009G14KT 26/19 A2989 RMK A01 T02640186  RH  062%=      5-min Rain = 0
KME1 270151Z 17009KT 26/19 A2989 RMK A01 T02640187  RH  063%=      5-min Rain = 0
KME1 270152Z 16009KT 26/19 A2989 RMK A01 T02620187  RH  063%=      5-min Rain = 0
KME1 270153Z 16011G16KT 26/19 A2989 RMK A01 T02620187  RH  064%=      5-min Rain = 0
KME1 270154Z 17010KT 26/19 A2989 RMK A01 T02620187  RH  063%=      5-min Rain = 0
KME1 270155Z 17010G18KT 26/19 A2989 RMK A01 T02610186  RH  063%=      5-min Rain = 0
KME1 270156Z 16013G18KT 26/19 A2989 RMK A01 T02620187  RH  063%=      5-min Rain = 0
KME1 270157Z 16014KT 26/19 A2989 RMK A01 T02620186  RH  063%=      5-min Rain = 0
KME1 270158Z 16011KT 26/19 A2989 RMK A01 T02620186  RH  063%=      5-min Rain = 0
KME1 270159Z 16014G19KT 26/19 A2989 RMK A01 T02630187  RH  063%=      5-min Rain = 0
KME1 270200Z 16012G18KT 26/19 A2989 RMK A01 T02630186  RH  063%=      5-min Rain = 0
KME1 270201Z 16012KT 26/19 A2989 RMK A01 T02630187  RH  063%=      5-min Rain = 0
KME1 270202Z 17013KT 26/19 A2988 RMK A01 T02630187  RH  063%=      5-min Rain = 0
KME1 270203Z 16012G17KT 26/19 A2988 RMK A01 T02630187  RH  063%=      5-min Rain = 0
KME1 270204Z 16011KT 26/19 A2988 RMK A01 T02630187  RH  063%=      5-min Rain = 0
KME1 270205Z 16014G19KT 26/19 A2989 RMK A01 T02620187  RH  063%=      5-min Rain = 0
KME1 270206Z 17013G18KT 26/19 A2989 RMK A01 T02620187  RH  063%=      5-min Rain = 0
KME1 270207Z 16014KT 26/19 A2989 RMK A01 T02620188  RH  064%=      5-min Rain = 0
KME1 270208Z 17015KT 26/19 A2989 RMK A01 T02620188  RH  064%=      5-min Rain = 0
KME1 270209Z 17014G19KT 26/19 A2989 RMK A01 T02630188  RH  064%=      5-min Rain = 0
KME1 270210Z 16013KT 26/19 A2989 RMK A01 T02620188  RH  064%=      5-min Rain = 0
KME1 270211Z 16017KT 26/19 A2989 RMK A01 T02620188  RH  064%=      5-min Rain = 0
KME1 270212Z 16014KT 26/19 A2989 RMK A01 T02620188  RH  064%=      5-min Rain = 0
KME1 270213Z 16014KT 26/19 A2989 RMK A01 T02620188  RH  064%=      5-min Rain = 0
KME1 270214Z 16013KT 26/19 A2989 RMK A01 T02620189  RH  064%=      5-min Rain = 0
KME1 270215Z 15011KT 26/19 A2989 RMK A01 T02620189  RH  064%=      5-min Rain = 0
KME1 270216Z 16012KT 26/19 A2989 RMK A01 T02620189  RH  064%=      5-min Rain = 0
KME1 270217Z 16012KT 26/19 A2989 RMK A01 T02610189  RH  064%=      5-min Rain = 0
KME1 270218Z 16012KT 26/19 A2989 RMK A01 T02610189  RH  064%=      5-min Rain = 0
KME1 270219Z 15013KT 26/19 A2989 RMK A01 T02610189  RH  065%=      5-min Rain = 0
KME1 270220Z 17013G18KT 26/19 A2989 RMK A01 T02610189  RH  065%=      5-min Rain = 0
KME1 270221Z 16012G17KT 26/19 A2989 RMK A01 T02610189  RH  065%=      5-min Rain = 0
KME1 270222Z 15012G18KT 26/19 A2989 RMK A01 T02610190  RH  065%=      5-min Rain = 0
KME1 270223Z 16014KT 26/19 A2989 RMK A01 T02600190  RH  065%=      5-min Rain = 0
KME1 270224Z 16011KT 26/19 A2989 RMK A01 T02610190  RH  065%=      5-min Rain = 0
KME1 270225Z 16010G15KT 26/19 A299 RMK A01 T02610190  RH  065%=      5-min Rain = 0
KME1 270226Z 16011KT 26/19 A299 RMK A01 T02600190  RH  065%=      5-min Rain = 0
KME1 270227Z 17012KT 26/19 A299 RMK A01 T02590190  RH  066%=      5-min Rain = 0
KME1 270228Z 17014KT 26/19 A299 RMK A01 T02590190  RH  066%=      5-min Rain = 0
KME1 270229Z 16015KT 26/19 A299 RMK A01 T02590190  RH  066%=      5-min Rain = 0
KME1 270230Z 16011KT 26/19 A299 RMK A01 T02590190  RH  065%=      5-min Rain = 0
KME1 270231Z 16009KT 26/19 A299 RMK A01 T02600191  RH  066%=      5-min Rain = 0
KME1 270232Z 16011KT 26/19 A299 RMK A01 T02580191  RH  066%=      5-min Rain = 0
KME1 270233Z 16012KT 26/19 A299 RMK A01 T02580190  RH  066%=      5-min Rain = 0
KME1 270234Z 17010KT 26/19 A299 RMK A01 T02580190  RH  066%=      5-min Rain = 0
KME1 270235Z 15011KT 26/19 A299 RMK A01 T02580191  RH  066%=      5-min Rain = 0
KME1 270236Z 16011G16KT 26/19 A299 RMK A01 T02580191  RH  066%=      5-min Rain = 0
KME1 270237Z 16012KT 26/19 A299 RMK A01 T02580191  RH  067%=      5-min Rain = 0
KME1 270238Z 16012KT 26/19 A299 RMK A01 T02580191  RH  066%=      5-min Rain = 0
KME1 270239Z 16010KT 26/19 A299 RMK A01 T02580191  RH  066%=      5-min Rain = 0
KME1 270240Z 16011KT 26/19 A299 RMK A01 T02580191  RH  067%=      5-min Rain = 0
KME1 270241Z 16012KT 26/19 A299 RMK A01 T02570191  RH  067%=      5-min Rain = 0
KME1 270242Z 16013KT 26/19 A299 RMK A01 T02570190  RH  067%=      5-min Rain = 0
KME1 270243Z 16009KT 26/19 A299 RMK A01 T02580191  RH  066%=      5-min Rain = 0
KME1 270244Z 16010KT 26/19 A299 RMK A01 T02580192  RH  067%=      5-min Rain = 0
KME1 270245Z 16009KT 26/19 A299 RMK A01 T02570191  RH  067%=      5-min Rain = 0
KME1 270246Z 16010KT 26/19 A299 RMK A01 T02570191  RH  067%=      5-min Rain = 0
KME1 270247Z 15010KT 26/19 A299 RMK A01 T02570191  RH  067%=      5-min Rain = 0
KME1 270248Z 16011KT 26/19 A299 RMK A01 T02570191  RH  067%=      5-min Rain = 0
KME1 270249Z 16009KT 26/19 A299 RMK A01 T02580191  RH  067%=      5-min Rain = 0
KME1 270250Z 16011KT 26/19 A299 RMK A01 T02570191  RH  067%=      5-min Rain = 0
KME1 270251Z 16008KT 26/19 A299 RMK A01 T02570191  RH  067%=      5-min Rain = 0
KME1 270252Z 16007KT 26/19 A299 RMK A01 T02570192  RH  068%=      5-min Rain = 0
KME1 270253Z 16012KT 26/19 A299 RMK A01 T02560192  RH  068%=      5-min Rain = 0
KME1 270254Z 16012KT 26/19 A299 RMK A01 T02560192  RH  068%=      5-min Rain = 0
KME1 270255Z 16009KT 26/19 A299 RMK A01 T02560191  RH  068%=      5-min Rain = 0
KME1 270256Z 16010KT 26/19 A299 RMK A01 T02550192  RH  068%=      5-min Rain = 0
KME1 270257Z 16011KT 26/19 A299 RMK A01 T02560192  RH  068%=      5-min Rain = 0
KME1 270258Z 16009KT 26/19 A299 RMK A01 T02560192  RH  068%=      5-min Rain = 0
KME1 270259Z 16011KT 26/19 A299 RMK A01 T02550192  RH  068%=      5-min Rain = 0
KME1 270300Z 16011KT 26/19 A299 RMK A01 T02550192  RH  068%=      5-min Rain = 0
KME1 270301Z 17010KT 26/19 A299 RMK A01 T02550192  RH  068%=      5-min Rain = 0
KME1 270302Z 16009KT 26/19 A299 RMK A01 T02550192  RH  068%=      5-min Rain = 0
KME1 270303Z 16010KT 26/19 A299 RMK A01 T02550192  RH  068%=      5-min Rain = 0
KME1 270304Z 16009KT 25/19 A299 RMK A01 T02540192  RH  068%=      5-min Rain = 0
KME1 270305Z 16010KT 26/19 A299 RMK A01 T02550192  RH  068%=      5-min Rain = 0
KME1 270306Z 16010KT 26/19 A299 RMK A01 T02550192  RH  068%=      5-min Rain = 0
KME1 270307Z 16008KT 26/19 A299 RMK A01 T02550192  RH  068%=      5-min Rain = 0
KME1 270308Z 16008KT 25/19 A299 RMK A01 T02540193  RH  069%=      5-min Rain = 0
KME1 270309Z 16009KT 25/19 A299 RMK A01 T02530193  RH  069%=      5-min Rain = 0
KME1 270310Z 16011G17KT 25/19 A299 RMK A01 T02530192  RH  069%=      5-min Rain = 0
KME1 270311Z 16010KT 25/19 A299 RMK A01 T02530191  RH  069%=      5-min Rain = 0
KME1 270312Z 16013KT 25/19 A299 RMK A01 T02540192  RH  068%=      5-min Rain = 0
KME1 270313Z 17009KT 25/19 A299 RMK A01 T02540192  RH  068%=      5-min Rain = 0
KME1 270314Z 17010G15KT 25/19 A299 RMK A01 T02540193  RH  069%=      5-min Rain = 0
KME1 270315Z 16008KT 25/19 A299 RMK A01 T02530193  RH  069%=      5-min Rain = 0
KME1 270316Z 16010KT 25/19 A299 RMK A01 T02520193  RH  070%=      5-min Rain = 0
KME1 270317Z 17008KT 25/19 A299 RMK A01 T02520192  RH  070%=      5-min Rain = 0
KME1 270318Z 17008KT 25/19 A299 RMK A01 T02510193  RH  070%=      5-min Rain = 0
KME1 270319Z 16009KT 25/19 A299 RMK A01 T02510192  RH  070%=      5-min Rain = 0
KME1 270320Z 17010KT 25/19 A299 RMK A01 T02510192  RH  070%=      5-min Rain = 0
KME1 270321Z 16010KT 25/19 A299 RMK A01 T02510192  RH  069%=      5-min Rain = 0
KME1 270322Z 17012KT 25/19 A299 RMK A01 T02520192  RH  069%=      5-min Rain = 0
KME1 270323Z 17010KT 25/19 A299 RMK A01 T02520192  RH  069%=      5-min Rain = 0
KME1 270324Z 16008KT 25/19 A299 RMK A01 T02520192  RH  069%=      5-min Rain = 0
KME1 270325Z 16011KT 25/19 A299 RMK A01 T02520192  RH  069%=      5-min Rain = 0
KME1 270326Z 17010KT 25/19 A299 RMK A01 T02520192  RH  069%=      5-min Rain = 0
KME1 270327Z 17011G16KT 25/19 A299 RMK A01 T02520192  RH  069%=      5-min Rain = 0
KME1 270328Z 16011KT 25/19 A299 RMK A01 T02520192  RH  069%=      5-min Rain = 0
KME1 270329Z 17009KT 25/19 A299 RMK A01 T02520192  RH  069%=      5-min Rain = 0
KME1 270330Z 17010G15KT 25/19 A299 RMK A01 T02510193  RH  070%=      5-min Rain = 0
KME1 270331Z 17012KT 25/19 A299 RMK A01 T02500192  RH  070%=      5-min Rain = 0
KME1 270332Z 17011KT 25/19 A299 RMK A01 T02500192  RH  070%=      5-min Rain = 0
KME1 270333Z 17012KT 25/19 A299 RMK A01 T02510192  RH  070%=      5-min Rain = 0
KME1 270334Z 18011KT 25/19 A299 RMK A01 T02510192  RH  070%=      5-min Rain = 0
KME1 270335Z 17011KT 25/19 A299 RMK A01 T02510192  RH  070%=      5-min Rain = 0
KME1 270336Z 18010KT 25/19 A299 RMK A01 T02510192  RH  070%=      5-min Rain = 0
KME1 270337Z 18010KT 25/19 A299 RMK A01 T02510193  RH  070%=      5-min Rain = 0
KME1 270338Z 18010KT 25/19 A299 RMK A01 T02500192  RH  070%=      5-min Rain = 0
KME1 270339Z 17011G16KT 25/19 A299 RMK A01 T02510192  RH  070%=      5-min Rain = 0
KME1 270340Z 18012KT 25/19 A299 RMK A01 T02500192  RH  070%=      5-min Rain = 0
KME1 270341Z 18011KT 25/19 A299 RMK A01 T02500192  RH  070%=      5-min Rain = 0
KME1 270342Z 18011KT 25/19 A2991 RMK A01 T02500192  RH  070%=      5-min Rain = 0
KME1 270343Z 17010KT 25/19 A2991 RMK A01 T02500192  RH  070%=      5-min Rain = 0
KME1 270344Z 17010KT 25/19 A2991 RMK A01 T02500192  RH  070%=      5-min Rain = 0
KME1 270345Z 17010KT 25/19 A2991 RMK A01 T02500192  RH  070%=      5-min Rain = 0
KME1 270346Z 17012G17KT 25/19 A2991 RMK A01 T02500192  RH  070%=      5-min Rain = 0
KME1 270347Z 18009KT 25/19 A2991 RMK A01 T02490193  RH  071%=      5-min Rain = 0
KME1 270348Z 17009KT 25/19 A2991 RMK A01 T02490193  RH  071%=      5-min Rain = 0
KME1 270349Z 18008KT 25/19 A2991 RMK A01 T02480193  RH  071%=      5-min Rain = 0
KME1 270350Z 17011KT 25/19 A2991 RMK A01 T02480192  RH  071%=      5-min Rain = 0
KME1 270351Z 18011KT 25/19 A2991 RMK A01 T02480192  RH  071%=      5-min Rain = 0
KME1 270352Z 17011KT 25/19 A2991 RMK A01 T02480192  RH  071%=      5-min Rain = 0
KME1 270353Z 17011KT 25/19 A2991 RMK A01 T02480192  RH  071%=      5-min Rain = 0
KME1 270354Z 18010KT 25/19 A2991 RMK A01 T02480192  RH  071%=      5-min Rain = 0
KME1 270355Z 17009KT 25/19 A2991 RMK A01 T02480193  RH  071%=      5-min Rain = 0
KME1 270356Z 17010KT 25/19 A2991 RMK A01 T02470193  RH  072%=      5-min Rain = 0
KME1 270357Z 17009KT 25/19 A2991 RMK A01 T02470192  RH  072%=      5-min Rain = 0
KME1 270358Z 17011KT 25/19 A2991 RMK A01 T02460192  RH  072%=      5-min Rain = 0
KME1 270359Z 17009KT 25/19 A2991 RMK A01 T02470192  RH  072%=      5-min Rain = 0
KME1 270400Z 17009KT 25/19 A2991 RMK A01 T02460192  RH  072%=      5-min Rain = 0
KME1 270401Z 17009KT 25/19 A2991 RMK A01 T02460192  RH  072%=      5-min Rain = 0
KME1 270402Z 17009KT 25/19 A2991 RMK A01 T02460193  RH  072%=      5-min Rain = 0
KME1 270403Z 17011KT 25/19 A2991 RMK A01 T02450192  RH  072%=      5-min Rain = 0
KME1 270404Z 17008KT 25/19 A2991 RMK A01 T02450192  RH  072%=      5-min Rain = 0
KME1 270405Z 17010KT 25/19 A2991 RMK A01 T02460192  RH  072%=      5-min Rain = 0
KME1 270406Z 18010KT 25/19 A2991 RMK A01 T02460192  RH  072%=      5-min Rain = 0
KME1 270407Z 18008KT 25/19 A2991 RMK A01 T02460192  RH  072%=      5-min Rain = 0
KME1 270408Z 17009KT 25/19 A2991 RMK A01 T02460193  RH  072%=      5-min Rain = 0
KME1 270409Z 17009KT 25/19 A2991 RMK A01 T02450192  RH  072%=      5-min Rain = 0
KME1 270410Z 17010KT 25/19 A2991 RMK A01 T02450192  RH  072%=      5-min Rain = 0
KME1 270411Z 17008KT 25/19 A2991 RMK A01 T02450192  RH  072%=      5-min Rain = 0
KME1 270412Z 17010KT 25/19 A2991 RMK A01 T02450193  RH  073%=      5-min Rain = 0
KME1 270413Z 17010KT 25/19 A2991 RMK A01 T02450192  RH  073%=      5-min Rain = 0
KME1 270414Z 18010KT 25/19 A2991 RMK A01 T02450192  RH  073%=      5-min Rain = 0
KME1 270415Z 17009KT 24/19 A2991 RMK A01 T02440192  RH  073%=      5-min Rain = 0
KME1 270416Z 17012KT 24/19 A2991 RMK A01 T02440192  RH  073%=      5-min Rain = 0
KME1 270417Z 17009KT 24/19 A2991 RMK A01 T02440192  RH  073%=      5-min Rain = 0
KME1 270418Z 17009KT 24/19 A2991 RMK A01 T02440192  RH  073%=      5-min Rain = 0
KME1 270419Z 17009KT 24/19 A2991 RMK A01 T02440193  RH  073%=      5-min Rain = 0
KME1 270420Z 17008KT 24/19 A2991 RMK A01 T02430193  RH  073%=      5-min Rain = 0
KME1 270421Z 17009KT 24/19 A2991 RMK A01 T02420192  RH  074%=      5-min Rain = 0
KME1 270422Z 17009KT 24/19 A2991 RMK A01 T02420192  RH  073%=      5-min Rain = 0
KME1 270423Z 18010KT 24/19 A2991 RMK A01 T02420192  RH  073%=      5-min Rain = 0
KME1 270424Z 17010KT 24/19 A2991 RMK A01 T02430192  RH  073%=      5-min Rain = 0
KME1 270425Z 17010KT 24/19 A2991 RMK A01 T02430192  RH  073%=      5-min Rain = 0
KME1 270426Z 17008KT 24/19 A2991 RMK A01 T02430192  RH  073%=      5-min Rain = 0
KME1 270427Z 18008KT 24/19 A2991 RMK A01 T02420193  RH  074%=      5-min Rain = 0
KME1 270428Z 17011KT 24/19 A2991 RMK A01 T02410193  RH  074%=      5-min Rain = 0
KME1 270429Z 17008KT 24/19 A2991 RMK A01 T02410192  RH  074%=      5-min Rain = 0
KME1 270430Z 17008KT 24/19 A2991 RMK A01 T02410192  RH  074%=      5-min Rain = 0
KME1 270431Z 18009KT 24/19 A2991 RMK A01 T02410192  RH  074%=      5-min Rain = 0
KME1 270432Z 17009KT 24/19 A2991 RMK A01 T02410192  RH  074%=      5-min Rain = 0
KME1 270433Z 17009KT 24/19 A2991 RMK A01 T02410192  RH  074%=      5-min Rain = 0
KME1 270434Z 17009KT 24/19 A2991 RMK A01 T02410192  RH  074%=      5-min Rain = 0
KME1 270435Z 18008KT 24/19 A2991 RMK A01 T02410192  RH  074%=      5-min Rain = 0
KME1 270436Z 17008KT 24/19 A2991 RMK A01 T02410193  RH  074%=      5-min Rain = 0
KME1 270437Z 17008KT 24/19 A2991 RMK A01 T02400192  RH  074%=      5-min Rain = 0
KME1 270438Z 18009KT 24/19 A2991 RMK A01 T02400193  RH  075%=      5-min Rain = 0
KME1 270439Z 18008KT 24/19 A2991 RMK A01 T02400192  RH  075%=      5-min Rain = 0
KME1 270440Z 17008KT 24/19 A2991 RMK A01 T02400192  RH  075%=      5-min Rain = 0
KME1 270441Z 17007KT 24/19 A2991 RMK A01 T02400192  RH  075%=      5-min Rain = 0
KME1 270442Z 17008KT 24/19 A2991 RMK A01 T02390193  RH  075%=      5-min Rain = 0
KME1 270443Z 17008KT 24/19 A2991 RMK A01 T02390192  RH  075%=      5-min Rain = 0
KME1 270444Z 17008KT 24/19 A2991 RMK A01 T02390193  RH  075%=      5-min Rain = 0
KME1 270445Z 17007KT 24/19 A2991 RMK A01 T02380192  RH  076%=      5-min Rain = 0
KME1 270446Z 17008KT 24/19 A2991 RMK A01 T02380193  RH  076%=      5-min Rain = 0
KME1 270447Z 17007KT 24/19 A2991 RMK A01 T02370192  RH  076%=      5-min Rain = 0
KME1 270448Z 17008KT 24/19 A2991 RMK A01 T02380192  RH  076%=      5-min Rain = 0
KME1 270449Z 18008KT 24/19 A2991 RMK A01 T02380193  RH  076%=      5-min Rain = 0
KME1 270450Z 18007KT 24/19 A2991 RMK A01 T02380192  RH  076%=      5-min Rain = 0
KME1 270451Z 17008KT 24/19 A2991 RMK A01 T02380192  RH  076%=      5-min Rain = 0
KME1 270452Z 17008KT 24/19 A2991 RMK A01 T02380192  RH  076%=      5-min Rain = 0
KME1 270453Z 17009KT 24/19 A2991 RMK A01 T02370192  RH  076%=      5-min Rain = 0
KME1 270454Z 17010KT 24/19 A2991 RMK A01 T02380192  RH  076%=      5-min Rain = 0
KME1 270455Z 17009KT 24/19 A2991 RMK A01 T02380191  RH  075%=      5-min Rain = 0
KME1 270456Z 17008KT 24/19 A2991 RMK A01 T02380192  RH  075%=      5-min Rain = 0
KME1 270457Z 18008KT 24/19 A2991 RMK A01 T02380192  RH  075%=      5-min Rain = 0
KME1 270458Z 17009KT 24/19 A2991 RMK A01 T02380192  RH  076%=      5-min Rain = 0
KME1 270459Z 17011KT 24/19 A299 RMK A01 T02380192  RH  076%=      5-min Rain = 0

Page generated in 0.0361 seconds.